<?xml version="1.0" encoding="UTF-8" standalone="no" ?>
<gpx xmlns="http://www.topografix.com/GPX/1/1" xmlns:xsi="http://www.w3.org/2001/XMLSchema-instance" xsi:schemaLocation="http://www.topografix.com/GPX/1/1 http://www.topografix.com/GPX/1/1/gpx.xsd" version="1.1" creator="VisuGPX - https://www.visugpx.com">
  <metadata>
    <name>Thorame (04) - Fabas (82) -  2021</name>
    <desc><![CDATA[Thorame (04) - Fabas (82) -  2021
plus de voies vertes qu'à l'aller vers Tarascon...]]></desc>
  </metadata>
  <trk>
    <name><![CDATA[Jour04]]></name>
    <trkseg>
      <trkpt lat="44.03061" lon="4.08635">
        <ele>56.9</ele>
        <time>2021-08-16T06:05:34Z</time>
      </trkpt>
      <trkpt lat="44.02979" lon="4.08706">
        <ele>90.3</ele>
        <time>2021-08-16T06:09:20Z</time>
      </trkpt>
      <trkpt lat="44.02885" lon="4.08693">
        <ele>99.5</ele>
        <time>2021-08-16T06:11:22Z</time>
      </trkpt>
      <trkpt lat="44.02809" lon="4.08574">
        <ele>98.5</ele>
        <time>2021-08-16T06:11:47Z</time>
      </trkpt>
      <trkpt lat="44.02746" lon="4.08463">
        <ele>98.5</ele>
        <time>2021-08-16T06:12:07Z</time>
      </trkpt>
      <trkpt lat="44.02715" lon="4.0834">
        <ele>96.9</ele>
        <time>2021-08-16T06:12:27Z</time>
      </trkpt>
      <trkpt lat="44.02689" lon="4.08214">
        <ele>96.5</ele>
        <time>2021-08-16T06:12:47Z</time>
      </trkpt>
      <trkpt lat="44.02597" lon="4.08163">
        <ele>99.6</ele>
        <time>2021-08-16T06:13:22Z</time>
      </trkpt>
      <trkpt lat="44.02554" lon="4.08044">
        <ele>101.3</ele>
        <time>2021-08-16T06:14:04Z</time>
      </trkpt>
      <trkpt lat="44.02461" lon="4.08013">
        <ele>103.8</ele>
        <time>2021-08-16T06:14:29Z</time>
      </trkpt>
      <trkpt lat="44.0236" lon="4.07984">
        <ele>106.8</ele>
        <time>2021-08-16T06:15:03Z</time>
      </trkpt>
      <trkpt lat="44.0226" lon="4.07978">
        <ele>110.1</ele>
        <time>2021-08-16T06:15:23Z</time>
      </trkpt>
      <trkpt lat="44.02362" lon="4.07986">
        <ele>105.2</ele>
        <time>2021-08-16T06:19:35Z</time>
      </trkpt>
      <trkpt lat="44.02405" lon="4.0786">
        <ele>108.1</ele>
        <time>2021-08-16T06:20:15Z</time>
      </trkpt>
      <trkpt lat="44.02382" lon="4.0773">
        <ele>108.3</ele>
        <time>2021-08-16T06:20:35Z</time>
      </trkpt>
      <trkpt lat="44.02405" lon="4.0756">
        <ele>106.3</ele>
        <time>2021-08-16T06:21:00Z</time>
      </trkpt>
      <trkpt lat="44.02442" lon="4.07411">
        <ele>104.5</ele>
        <time>2021-08-16T06:21:20Z</time>
      </trkpt>
      <trkpt lat="44.02455" lon="4.07269">
        <ele>104</ele>
        <time>2021-08-16T06:21:40Z</time>
      </trkpt>
      <trkpt lat="44.02469" lon="4.07112">
        <ele>104.6</ele>
        <time>2021-08-16T06:22:00Z</time>
      </trkpt>
      <trkpt lat="44.02464" lon="4.0696">
        <ele>107.3</ele>
        <time>2021-08-16T06:22:20Z</time>
      </trkpt>
      <trkpt lat="44.02446" lon="4.06827">
        <ele>104.7</ele>
        <time>2021-08-16T06:22:40Z</time>
      </trkpt>
      <trkpt lat="44.02427" lon="4.06698">
        <ele>104.4</ele>
        <time>2021-08-16T06:23:00Z</time>
      </trkpt>
      <trkpt lat="44.02399" lon="4.06568">
        <ele>102.8</ele>
        <time>2021-08-16T06:23:20Z</time>
      </trkpt>
      <trkpt lat="44.02369" lon="4.06418">
        <ele>101</ele>
        <time>2021-08-16T06:23:40Z</time>
      </trkpt>
      <trkpt lat="44.02336" lon="4.06277">
        <ele>101.2</ele>
        <time>2021-08-16T06:24:00Z</time>
      </trkpt>
      <trkpt lat="44.02302" lon="4.06142">
        <ele>101.3</ele>
        <time>2021-08-16T06:24:20Z</time>
      </trkpt>
      <trkpt lat="44.0227" lon="4.06001">
        <ele>104.8</ele>
        <time>2021-08-16T06:24:40Z</time>
      </trkpt>
      <trkpt lat="44.02238" lon="4.05861">
        <ele>106.8</ele>
        <time>2021-08-16T06:25:00Z</time>
      </trkpt>
      <trkpt lat="44.0219" lon="4.05729">
        <ele>108</ele>
        <time>2021-08-16T06:25:20Z</time>
      </trkpt>
      <trkpt lat="44.021" lon="4.05644">
        <ele>106.7</ele>
        <time>2021-08-16T06:25:40Z</time>
      </trkpt>
      <trkpt lat="44.02004" lon="4.05562">
        <ele>106.2</ele>
        <time>2021-08-16T06:26:00Z</time>
      </trkpt>
      <trkpt lat="44.01966" lon="4.05427">
        <ele>107.7</ele>
        <time>2021-08-16T06:26:20Z</time>
      </trkpt>
      <trkpt lat="44.01978" lon="4.05282">
        <ele>105.4</ele>
        <time>2021-08-16T06:26:40Z</time>
      </trkpt>
      <trkpt lat="44.0199" lon="4.05138">
        <ele>105.6</ele>
        <time>2021-08-16T06:27:05Z</time>
      </trkpt>
      <trkpt lat="44.02004" lon="4.05009">
        <ele>105.4</ele>
        <time>2021-08-16T06:27:25Z</time>
      </trkpt>
      <trkpt lat="44.02051" lon="4.04891">
        <ele>107.9</ele>
        <time>2021-08-16T06:27:45Z</time>
      </trkpt>
      <trkpt lat="44.02117" lon="4.04778">
        <ele>108.2</ele>
        <time>2021-08-16T06:28:05Z</time>
      </trkpt>
      <trkpt lat="44.0216" lon="4.04658">
        <ele>108.1</ele>
        <time>2021-08-16T06:28:25Z</time>
      </trkpt>
      <trkpt lat="44.02171" lon="4.04523">
        <ele>107.9</ele>
        <time>2021-08-16T06:28:45Z</time>
      </trkpt>
      <trkpt lat="44.02178" lon="4.04385">
        <ele>108.7</ele>
        <time>2021-08-16T06:29:05Z</time>
      </trkpt>
      <trkpt lat="44.02188" lon="4.04247">
        <ele>110</ele>
        <time>2021-08-16T06:29:25Z</time>
      </trkpt>
      <trkpt lat="44.02202" lon="4.04099">
        <ele>109.7</ele>
        <time>2021-08-16T06:29:50Z</time>
      </trkpt>
      <trkpt lat="44.02241" lon="4.03963">
        <ele>115.2</ele>
        <time>2021-08-16T06:30:15Z</time>
      </trkpt>
      <trkpt lat="44.02289" lon="4.03858">
        <ele>113.6</ele>
        <time>2021-08-16T06:30:45Z</time>
      </trkpt>
      <trkpt lat="44.02338" lon="4.03737">
        <ele>113.9</ele>
        <time>2021-08-16T06:31:15Z</time>
      </trkpt>
      <trkpt lat="44.02379" lon="4.03626">
        <ele>112.9</ele>
        <time>2021-08-16T06:31:40Z</time>
      </trkpt>
      <trkpt lat="44.02422" lon="4.03488">
        <ele>114.1</ele>
        <time>2021-08-16T06:32:05Z</time>
      </trkpt>
      <trkpt lat="44.02452" lon="4.03345">
        <ele>114.4</ele>
        <time>2021-08-16T06:32:30Z</time>
      </trkpt>
      <trkpt lat="44.02465" lon="4.03205">
        <ele>111.5</ele>
        <time>2021-08-16T06:32:55Z</time>
      </trkpt>
      <trkpt lat="44.02468" lon="4.03058">
        <ele>112.2</ele>
        <time>2021-08-16T06:33:20Z</time>
      </trkpt>
      <trkpt lat="44.02476" lon="4.02915">
        <ele>113.3</ele>
        <time>2021-08-16T06:33:45Z</time>
      </trkpt>
      <trkpt lat="44.02482" lon="4.02762">
        <ele>113.1</ele>
        <time>2021-08-16T06:34:15Z</time>
      </trkpt>
      <trkpt lat="44.02456" lon="4.02627">
        <ele>112.8</ele>
        <time>2021-08-16T06:34:40Z</time>
      </trkpt>
      <trkpt lat="44.02481" lon="4.0248">
        <ele>120.4</ele>
        <time>2021-08-16T06:37:48Z</time>
      </trkpt>
      <trkpt lat="44.02529" lon="4.0236">
        <ele>122.9</ele>
        <time>2021-08-16T06:38:08Z</time>
      </trkpt>
      <trkpt lat="44.02617" lon="4.0227">
        <ele>122.9</ele>
        <time>2021-08-16T06:38:33Z</time>
      </trkpt>
      <trkpt lat="44.02685" lon="4.02176">
        <ele>124.9</ele>
        <time>2021-08-16T06:38:58Z</time>
      </trkpt>
      <trkpt lat="44.02733" lon="4.02052">
        <ele>123.4</ele>
        <time>2021-08-16T06:39:23Z</time>
      </trkpt>
      <trkpt lat="44.0277" lon="4.01935">
        <ele>121.1</ele>
        <time>2021-08-16T06:39:43Z</time>
      </trkpt>
      <trkpt lat="44.02817" lon="4.0182">
        <ele>121.2</ele>
        <time>2021-08-16T06:40:03Z</time>
      </trkpt>
      <trkpt lat="44.02876" lon="4.01724">
        <ele>123.4</ele>
        <time>2021-08-16T06:40:23Z</time>
      </trkpt>
      <trkpt lat="44.02939" lon="4.01602">
        <ele>124.1</ele>
        <time>2021-08-16T06:40:48Z</time>
      </trkpt>
      <trkpt lat="44.02989" lon="4.01474">
        <ele>123.9</ele>
        <time>2021-08-16T06:41:13Z</time>
      </trkpt>
      <trkpt lat="44.03035" lon="4.01368">
        <ele>125</ele>
        <time>2021-08-16T06:41:33Z</time>
      </trkpt>
      <trkpt lat="44.0299" lon="4.01239">
        <ele>130.1</ele>
        <time>2021-08-16T06:42:17Z</time>
      </trkpt>
      <trkpt lat="44.02936" lon="4.0113">
        <ele>126.1</ele>
        <time>2021-08-16T06:42:42Z</time>
      </trkpt>
      <trkpt lat="44.02874" lon="4.01031">
        <ele>124.5</ele>
        <time>2021-08-16T06:43:07Z</time>
      </trkpt>
      <trkpt lat="44.02814" lon="4.00909">
        <ele>127.2</ele>
        <time>2021-08-16T06:43:37Z</time>
      </trkpt>
      <trkpt lat="44.0275" lon="4.00817">
        <ele>129.3</ele>
        <time>2021-08-16T06:44:02Z</time>
      </trkpt>
      <trkpt lat="44.02682" lon="4.00726">
        <ele>130.6</ele>
        <time>2021-08-16T06:44:22Z</time>
      </trkpt>
      <trkpt lat="44.02601" lon="4.00637">
        <ele>128.7</ele>
        <time>2021-08-16T06:45:53Z</time>
      </trkpt>
      <trkpt lat="44.02545" lon="4.00531">
        <ele>137.6</ele>
        <time>2021-08-16T06:46:38Z</time>
      </trkpt>
      <trkpt lat="44.02514" lon="4.00406">
        <ele>139</ele>
        <time>2021-08-16T06:46:58Z</time>
      </trkpt>
      <trkpt lat="44.02454" lon="4.003">
        <ele>132</ele>
        <time>2021-08-16T06:47:23Z</time>
      </trkpt>
      <trkpt lat="44.02442" lon="4.00169">
        <ele>124.6</ele>
        <time>2021-08-16T06:47:48Z</time>
      </trkpt>
      <trkpt lat="44.02472" lon="4.00033">
        <ele>136.9</ele>
        <time>2021-08-16T06:48:23Z</time>
      </trkpt>
      <trkpt lat="44.02494" lon="3.99899">
        <ele>135.6</ele>
        <time>2021-08-16T06:48:53Z</time>
      </trkpt>
      <trkpt lat="44.02499" lon="3.99768">
        <ele>137.3</ele>
        <time>2021-08-16T06:49:23Z</time>
      </trkpt>
      <trkpt lat="44.02411" lon="3.99731">
        <ele>142.5</ele>
        <time>2021-08-16T06:49:58Z</time>
      </trkpt>
      <trkpt lat="44.02311" lon="3.99708">
        <ele>143.1</ele>
        <time>2021-08-16T06:50:18Z</time>
      </trkpt>
      <trkpt lat="44.02224" lon="3.99661">
        <ele>144.2</ele>
        <time>2021-08-16T06:50:38Z</time>
      </trkpt>
      <trkpt lat="44.02143" lon="3.99591">
        <ele>144.2</ele>
        <time>2021-08-16T06:50:58Z</time>
      </trkpt>
      <trkpt lat="44.02062" lon="3.99516">
        <ele>143.1</ele>
        <time>2021-08-16T06:51:23Z</time>
      </trkpt>
      <trkpt lat="44.0197" lon="3.99467">
        <ele>143.3</ele>
        <time>2021-08-16T06:51:43Z</time>
      </trkpt>
      <trkpt lat="44.01877" lon="3.99438">
        <ele>141.7</ele>
        <time>2021-08-16T06:51:58Z</time>
      </trkpt>
      <trkpt lat="44.01788" lon="3.9937">
        <ele>139.7</ele>
        <time>2021-08-16T06:52:13Z</time>
      </trkpt>
      <trkpt lat="44.01713" lon="3.99292">
        <ele>137.4</ele>
        <time>2021-08-16T06:52:33Z</time>
      </trkpt>
      <trkpt lat="44.01623" lon="3.99208">
        <ele>140.6</ele>
        <time>2021-08-16T06:52:58Z</time>
      </trkpt>
      <trkpt lat="44.01602" lon="3.99346">
        <ele>153.7</ele>
        <time>2021-08-16T06:53:48Z</time>
      </trkpt>
      <trkpt lat="44.01537" lon="3.99431">
        <ele>162.6</ele>
        <time>2021-08-16T06:54:33Z</time>
      </trkpt>
      <trkpt lat="44.01441" lon="3.99387">
        <ele>162.8</ele>
        <time>2021-08-16T06:55:20Z</time>
      </trkpt>
      <trkpt lat="44.01347" lon="3.99358">
        <ele>163.3</ele>
        <time>2021-08-16T06:55:55Z</time>
      </trkpt>
      <trkpt lat="44.0125" lon="3.9934">
        <ele>167.9</ele>
        <time>2021-08-16T06:56:35Z</time>
      </trkpt>
      <trkpt lat="44.0117" lon="3.99249">
        <ele>170.2</ele>
        <time>2021-08-16T06:57:20Z</time>
      </trkpt>
      <trkpt lat="44.01126" lon="3.99124">
        <ele>178.4</ele>
        <time>2021-08-16T06:58:05Z</time>
      </trkpt>
      <trkpt lat="44.01107" lon="3.98997">
        <ele>179.7</ele>
        <time>2021-08-16T06:58:46Z</time>
      </trkpt>
      <trkpt lat="44.01055" lon="3.9887">
        <ele>180.7</ele>
        <time>2021-08-16T06:59:06Z</time>
      </trkpt>
      <trkpt lat="44.01033" lon="3.98742">
        <ele>181</ele>
        <time>2021-08-16T06:59:21Z</time>
      </trkpt>
      <trkpt lat="44.01037" lon="3.98612">
        <ele>182.2</ele>
        <time>2021-08-16T06:59:36Z</time>
      </trkpt>
      <trkpt lat="44.00977" lon="3.98503">
        <ele>182.9</ele>
        <time>2021-08-16T06:59:51Z</time>
      </trkpt>
      <trkpt lat="44.00876" lon="3.98427">
        <ele>181.9</ele>
        <time>2021-08-16T07:00:11Z</time>
      </trkpt>
      <trkpt lat="44.00772" lon="3.98378">
        <ele>181.7</ele>
        <time>2021-08-16T07:00:26Z</time>
      </trkpt>
      <trkpt lat="44.00668" lon="3.98322">
        <ele>175.9</ele>
        <time>2021-08-16T07:00:41Z</time>
      </trkpt>
      <trkpt lat="44.00571" lon="3.98263">
        <ele>170.1</ele>
        <time>2021-08-16T07:01:01Z</time>
      </trkpt>
      <trkpt lat="44.00502" lon="3.98168">
        <ele>166.1</ele>
        <time>2021-08-16T07:01:16Z</time>
      </trkpt>
      <trkpt lat="44.00422" lon="3.98075">
        <ele>165.5</ele>
        <time>2021-08-16T07:01:36Z</time>
      </trkpt>
      <trkpt lat="44.00331" lon="3.98015">
        <ele>162.1</ele>
        <time>2021-08-16T07:01:56Z</time>
      </trkpt>
      <trkpt lat="44.00239" lon="3.9793">
        <ele>156.7</ele>
        <time>2021-08-16T07:02:16Z</time>
      </trkpt>
      <trkpt lat="44.00152" lon="3.97834">
        <ele>154.6</ele>
        <time>2021-08-16T07:02:31Z</time>
      </trkpt>
      <trkpt lat="44.0007" lon="3.9774">
        <ele>153.2</ele>
        <time>2021-08-16T07:02:46Z</time>
      </trkpt>
      <trkpt lat="43.99986" lon="3.97639">
        <ele>154.8</ele>
        <time>2021-08-16T07:03:01Z</time>
      </trkpt>
      <trkpt lat="43.9991" lon="3.97551">
        <ele>157.4</ele>
        <time>2021-08-16T07:03:16Z</time>
      </trkpt>
      <trkpt lat="43.99824" lon="3.97478">
        <ele>160</ele>
        <time>2021-08-16T07:03:41Z</time>
      </trkpt>
      <trkpt lat="43.9974" lon="3.97414">
        <ele>172.2</ele>
        <time>2021-08-16T07:04:16Z</time>
      </trkpt>
      <trkpt lat="43.99664" lon="3.97309">
        <ele>173.3</ele>
        <time>2021-08-16T07:04:36Z</time>
      </trkpt>
      <trkpt lat="43.99592" lon="3.97201">
        <ele>174.9</ele>
        <time>2021-08-16T07:04:51Z</time>
      </trkpt>
      <trkpt lat="43.99522" lon="3.97087">
        <ele>175.6</ele>
        <time>2021-08-16T07:05:06Z</time>
      </trkpt>
      <trkpt lat="43.99463" lon="3.96983">
        <ele>175</ele>
        <time>2021-08-16T07:05:16Z</time>
      </trkpt>
      <trkpt lat="43.99394" lon="3.96839">
        <ele>170</ele>
        <time>2021-08-16T07:05:31Z</time>
      </trkpt>
      <trkpt lat="43.99347" lon="3.96708">
        <ele>166</ele>
        <time>2021-08-16T07:05:51Z</time>
      </trkpt>
      <trkpt lat="43.99331" lon="3.96577">
        <ele>165.4</ele>
        <time>2021-08-16T07:06:21Z</time>
      </trkpt>
      <trkpt lat="43.99311" lon="3.9645">
        <ele>163.8</ele>
        <time>2021-08-16T07:06:46Z</time>
      </trkpt>
      <trkpt lat="43.9929" lon="3.96315">
        <ele>158.1</ele>
        <time>2021-08-16T07:07:11Z</time>
      </trkpt>
      <trkpt lat="43.99256" lon="3.96171">
        <ele>154.7</ele>
        <time>2021-08-16T07:07:36Z</time>
      </trkpt>
      <trkpt lat="43.99234" lon="3.96037">
        <ele>150.8</ele>
        <time>2021-08-16T07:07:56Z</time>
      </trkpt>
      <trkpt lat="43.9915" lon="3.95943">
        <ele>150.1</ele>
        <time>2021-08-16T07:08:16Z</time>
      </trkpt>
      <trkpt lat="43.99101" lon="3.95827">
        <ele>149.4</ele>
        <time>2021-08-16T07:08:46Z</time>
      </trkpt>
      <trkpt lat="43.99048" lon="3.95706">
        <ele>156.5</ele>
        <time>2021-08-16T07:09:21Z</time>
      </trkpt>
      <trkpt lat="43.98991" lon="3.95593">
        <ele>167.1</ele>
        <time>2021-08-16T07:09:56Z</time>
      </trkpt>
      <trkpt lat="43.9893" lon="3.95494">
        <ele>175.8</ele>
        <time>2021-08-16T07:10:47Z</time>
      </trkpt>
      <trkpt lat="43.98933" lon="3.95364">
        <ele>174.1</ele>
        <time>2021-08-16T07:14:16Z</time>
      </trkpt>
      <trkpt lat="43.98922" lon="3.95221">
        <ele>177.2</ele>
        <time>2021-08-16T07:14:46Z</time>
      </trkpt>
      <trkpt lat="43.98903" lon="3.95071">
        <ele>173.4</ele>
        <time>2021-08-16T07:15:11Z</time>
      </trkpt>
      <trkpt lat="43.98888" lon="3.94933">
        <ele>171.6</ele>
        <time>2021-08-16T07:15:36Z</time>
      </trkpt>
      <trkpt lat="43.98884" lon="3.94801">
        <ele>172.2</ele>
        <time>2021-08-16T07:16:01Z</time>
      </trkpt>
      <trkpt lat="43.98872" lon="3.94672">
        <ele>174.4</ele>
        <time>2021-08-16T07:16:26Z</time>
      </trkpt>
      <trkpt lat="43.98852" lon="3.9453">
        <ele>177.8</ele>
        <time>2021-08-16T07:17:01Z</time>
      </trkpt>
      <trkpt lat="43.98822" lon="3.9439">
        <ele>187.2</ele>
        <time>2021-08-16T07:17:36Z</time>
      </trkpt>
      <trkpt lat="43.98781" lon="3.94253">
        <ele>194.5</ele>
        <time>2021-08-16T07:18:06Z</time>
      </trkpt>
      <trkpt lat="43.98754" lon="3.94122">
        <ele>204.5</ele>
        <time>2021-08-16T07:18:47Z</time>
      </trkpt>
      <trkpt lat="43.98719" lon="3.93988">
        <ele>217</ele>
        <time>2021-08-16T07:19:32Z</time>
      </trkpt>
      <trkpt lat="43.98657" lon="3.93857">
        <ele>212.4</ele>
        <time>2021-08-16T07:21:29Z</time>
      </trkpt>
      <trkpt lat="43.98597" lon="3.93727">
        <ele>208.2</ele>
        <time>2021-08-16T07:21:49Z</time>
      </trkpt>
      <trkpt lat="43.98516" lon="3.93609">
        <ele>205.8</ele>
        <time>2021-08-16T07:22:04Z</time>
      </trkpt>
      <trkpt lat="43.98435" lon="3.93496">
        <ele>201.8</ele>
        <time>2021-08-16T07:22:19Z</time>
      </trkpt>
      <trkpt lat="43.9837" lon="3.9337">
        <ele>198.7</ele>
        <time>2021-08-16T07:22:34Z</time>
      </trkpt>
      <trkpt lat="43.98314" lon="3.93239">
        <ele>197.3</ele>
        <time>2021-08-16T07:22:49Z</time>
      </trkpt>
      <trkpt lat="43.98253" lon="3.93133">
        <ele>196.3</ele>
        <time>2021-08-16T07:23:09Z</time>
      </trkpt>
      <trkpt lat="43.98177" lon="3.93052">
        <ele>196.2</ele>
        <time>2021-08-16T07:23:29Z</time>
      </trkpt>
      <trkpt lat="43.98069" lon="3.92953">
        <ele>194.1</ele>
        <time>2021-08-16T07:23:49Z</time>
      </trkpt>
      <trkpt lat="43.97967" lon="3.92826">
        <ele>190.2</ele>
        <time>2021-08-16T07:24:04Z</time>
      </trkpt>
      <trkpt lat="43.97894" lon="3.92738">
        <ele>186.5</ele>
        <time>2021-08-16T07:24:14Z</time>
      </trkpt>
      <trkpt lat="43.97819" lon="3.92646">
        <ele>181.6</ele>
        <time>2021-08-16T07:24:24Z</time>
      </trkpt>
      <trkpt lat="43.97746" lon="3.92565">
        <ele>177.9</ele>
        <time>2021-08-16T07:24:34Z</time>
      </trkpt>
      <trkpt lat="43.97634" lon="3.92486">
        <ele>173.8</ele>
        <time>2021-08-16T07:24:49Z</time>
      </trkpt>
      <trkpt lat="43.97539" lon="3.92464">
        <ele>167.9</ele>
        <time>2021-08-16T07:25:04Z</time>
      </trkpt>
      <trkpt lat="43.97434" lon="3.92473">
        <ele>162.3</ele>
        <time>2021-08-16T07:25:24Z</time>
      </trkpt>
      <trkpt lat="43.97318" lon="3.92489">
        <ele>156.9</ele>
        <time>2021-08-16T07:25:44Z</time>
      </trkpt>
      <trkpt lat="43.97219" lon="3.92465">
        <ele>155.1</ele>
        <time>2021-08-16T07:25:59Z</time>
      </trkpt>
      <trkpt lat="43.97127" lon="3.92441">
        <ele>155.5</ele>
        <time>2021-08-16T07:26:14Z</time>
      </trkpt>
      <trkpt lat="43.97019" lon="3.92411">
        <ele>160.5</ele>
        <time>2021-08-16T07:26:29Z</time>
      </trkpt>
      <trkpt lat="43.96904" lon="3.92318">
        <ele>165.5</ele>
        <time>2021-08-16T07:26:44Z</time>
      </trkpt>
      <trkpt lat="43.9683" lon="3.92207">
        <ele>168</ele>
        <time>2021-08-16T07:26:59Z</time>
      </trkpt>
      <trkpt lat="43.9675" lon="3.9209">
        <ele>171.1</ele>
        <time>2021-08-16T07:27:19Z</time>
      </trkpt>
      <trkpt lat="43.96666" lon="3.91962">
        <ele>171.8</ele>
        <time>2021-08-16T07:27:39Z</time>
      </trkpt>
      <trkpt lat="43.966" lon="3.91845">
        <ele>171.6</ele>
        <time>2021-08-16T07:27:54Z</time>
      </trkpt>
      <trkpt lat="43.96492" lon="3.91803">
        <ele>171.8</ele>
        <time>2021-08-16T07:29:39Z</time>
      </trkpt>
      <trkpt lat="43.96404" lon="3.91846">
        <ele>170.5</ele>
        <time>2021-08-16T07:29:49Z</time>
      </trkpt>
      <trkpt lat="43.96303" lon="3.91875">
        <ele>166</ele>
        <time>2021-08-16T07:29:59Z</time>
      </trkpt>
      <trkpt lat="43.96214" lon="3.91807">
        <ele>163.8</ele>
        <time>2021-08-16T07:30:09Z</time>
      </trkpt>
      <trkpt lat="43.96135" lon="3.91735">
        <ele>161.4</ele>
        <time>2021-08-16T07:30:19Z</time>
      </trkpt>
      <trkpt lat="43.96054" lon="3.9165">
        <ele>159.5</ele>
        <time>2021-08-16T07:30:29Z</time>
      </trkpt>
      <trkpt lat="43.96031" lon="3.91512">
        <ele>150.3</ele>
        <time>2021-08-16T07:30:54Z</time>
      </trkpt>
      <trkpt lat="43.96016" lon="3.91367">
        <ele>138.9</ele>
        <time>2021-08-16T07:31:29Z</time>
      </trkpt>
      <trkpt lat="43.9601" lon="3.91214">
        <ele>130.8</ele>
        <time>2021-08-16T07:31:59Z</time>
      </trkpt>
      <trkpt lat="43.95994" lon="3.91068">
        <ele>126.3</ele>
        <time>2021-08-16T07:32:24Z</time>
      </trkpt>
      <trkpt lat="43.95963" lon="3.90915">
        <ele>122.4</ele>
        <time>2021-08-16T07:32:49Z</time>
      </trkpt>
      <trkpt lat="43.95937" lon="3.90787">
        <ele>119.3</ele>
        <time>2021-08-16T07:33:09Z</time>
      </trkpt>
      <trkpt lat="43.95909" lon="3.90636">
        <ele>118.8</ele>
        <time>2021-08-16T07:33:29Z</time>
      </trkpt>
      <trkpt lat="43.95884" lon="3.90508">
        <ele>120</ele>
        <time>2021-08-16T07:33:49Z</time>
      </trkpt>
      <trkpt lat="43.95865" lon="3.90372">
        <ele>120.5</ele>
        <time>2021-08-16T07:34:14Z</time>
      </trkpt>
      <trkpt lat="43.95881" lon="3.90231">
        <ele>121</ele>
        <time>2021-08-16T07:34:34Z</time>
      </trkpt>
      <trkpt lat="43.95897" lon="3.90091">
        <ele>122.5</ele>
        <time>2021-08-16T07:34:54Z</time>
      </trkpt>
      <trkpt lat="43.95912" lon="3.89953">
        <ele>122.2</ele>
        <time>2021-08-16T07:35:14Z</time>
      </trkpt>
      <trkpt lat="43.95953" lon="3.89824">
        <ele>122.3</ele>
        <time>2021-08-16T07:35:39Z</time>
      </trkpt>
      <trkpt lat="43.95993" lon="3.89687">
        <ele>124.2</ele>
        <time>2021-08-16T07:36:04Z</time>
      </trkpt>
      <trkpt lat="43.96043" lon="3.89556">
        <ele>125</ele>
        <time>2021-08-16T07:36:29Z</time>
      </trkpt>
      <trkpt lat="43.96082" lon="3.89438">
        <ele>127.2</ele>
        <time>2021-08-16T07:36:49Z</time>
      </trkpt>
      <trkpt lat="43.96103" lon="3.89314">
        <ele>129</ele>
        <time>2021-08-16T07:37:09Z</time>
      </trkpt>
      <trkpt lat="43.96127" lon="3.89172">
        <ele>131.3</ele>
        <time>2021-08-16T07:37:34Z</time>
      </trkpt>
      <trkpt lat="43.96154" lon="3.8903">
        <ele>131.7</ele>
        <time>2021-08-16T07:37:59Z</time>
      </trkpt>
      <trkpt lat="43.96164" lon="3.8887">
        <ele>135.2</ele>
        <time>2021-08-16T07:38:24Z</time>
      </trkpt>
      <trkpt lat="43.96169" lon="3.88723">
        <ele>136.1</ele>
        <time>2021-08-16T07:38:44Z</time>
      </trkpt>
      <trkpt lat="43.96188" lon="3.88584">
        <ele>155</ele>
        <time>2021-08-16T07:40:58Z</time>
      </trkpt>
      <trkpt lat="43.96203" lon="3.88443">
        <ele>158.9</ele>
        <time>2021-08-16T07:41:28Z</time>
      </trkpt>
      <trkpt lat="43.96221" lon="3.88311">
        <ele>166.2</ele>
        <time>2021-08-16T07:41:58Z</time>
      </trkpt>
      <trkpt lat="43.9625" lon="3.88183">
        <ele>171.2</ele>
        <time>2021-08-16T07:42:23Z</time>
      </trkpt>
      <trkpt lat="43.96294" lon="3.88045">
        <ele>173.3</ele>
        <time>2021-08-16T07:42:48Z</time>
      </trkpt>
      <trkpt lat="43.96337" lon="3.87905">
        <ele>174.7</ele>
        <time>2021-08-16T07:43:13Z</time>
      </trkpt>
      <trkpt lat="43.96369" lon="3.87763">
        <ele>176.8</ele>
        <time>2021-08-16T07:43:38Z</time>
      </trkpt>
      <trkpt lat="43.96384" lon="3.87608">
        <ele>183.8</ele>
        <time>2021-08-16T07:44:03Z</time>
      </trkpt>
      <trkpt lat="43.96377" lon="3.87461">
        <ele>191.2</ele>
        <time>2021-08-16T07:44:28Z</time>
      </trkpt>
      <trkpt lat="43.96371" lon="3.8733">
        <ele>195.3</ele>
        <time>2021-08-16T07:44:48Z</time>
      </trkpt>
      <trkpt lat="43.9639" lon="3.87198">
        <ele>199.1</ele>
        <time>2021-08-16T07:45:08Z</time>
      </trkpt>
      <trkpt lat="43.96437" lon="3.87073">
        <ele>189.9</ele>
        <time>2021-08-16T07:45:28Z</time>
      </trkpt>
      <trkpt lat="43.96506" lon="3.86983">
        <ele>185.7</ele>
        <time>2021-08-16T07:45:48Z</time>
      </trkpt>
      <trkpt lat="43.96583" lon="3.86896">
        <ele>179.7</ele>
        <time>2021-08-16T07:46:08Z</time>
      </trkpt>
      <trkpt lat="43.96662" lon="3.86785">
        <ele>173</ele>
        <time>2021-08-16T07:46:28Z</time>
      </trkpt>
      <trkpt lat="43.9671" lon="3.86674">
        <ele>173.6</ele>
        <time>2021-08-16T07:46:43Z</time>
      </trkpt>
      <trkpt lat="43.96722" lon="3.86527">
        <ele>173.2</ele>
        <time>2021-08-16T07:47:03Z</time>
      </trkpt>
      <trkpt lat="43.96709" lon="3.86386">
        <ele>170.3</ele>
        <time>2021-08-16T07:47:23Z</time>
      </trkpt>
      <trkpt lat="43.96698" lon="3.86257">
        <ele>173.6</ele>
        <time>2021-08-16T07:47:43Z</time>
      </trkpt>
      <trkpt lat="43.96627" lon="3.86136">
        <ele>179.6</ele>
        <time>2021-08-16T07:48:23Z</time>
      </trkpt>
      <trkpt lat="43.96604" lon="3.86">
        <ele>181.3</ele>
        <time>2021-08-16T07:48:43Z</time>
      </trkpt>
      <trkpt lat="43.96607" lon="3.85871">
        <ele>182.4</ele>
        <time>2021-08-16T07:48:58Z</time>
      </trkpt>
      <trkpt lat="43.96581" lon="3.85749">
        <ele>183.9</ele>
        <time>2021-08-16T07:49:18Z</time>
      </trkpt>
      <trkpt lat="43.9657" lon="3.85621">
        <ele>188</ele>
        <time>2021-08-16T07:49:48Z</time>
      </trkpt>
      <trkpt lat="43.96551" lon="3.85493">
        <ele>166.9</ele>
        <time>2021-08-16T08:14:02Z</time>
      </trkpt>
      <trkpt lat="43.96512" lon="3.85368">
        <ele>179.4</ele>
        <time>2021-08-16T08:15:00Z</time>
      </trkpt>
      <trkpt lat="43.96414" lon="3.85332">
        <ele>186.3</ele>
        <time>2021-08-16T08:15:42Z</time>
      </trkpt>
      <trkpt lat="43.9635" lon="3.85234">
        <ele>190.4</ele>
        <time>2021-08-16T08:16:02Z</time>
      </trkpt>
      <trkpt lat="43.96281" lon="3.85096">
        <ele>195.4</ele>
        <time>2021-08-16T08:16:22Z</time>
      </trkpt>
      <trkpt lat="43.96222" lon="3.84965">
        <ele>199.3</ele>
        <time>2021-08-16T08:16:42Z</time>
      </trkpt>
      <trkpt lat="43.96168" lon="3.84842">
        <ele>202.1</ele>
        <time>2021-08-16T08:17:02Z</time>
      </trkpt>
      <trkpt lat="43.96092" lon="3.84749">
        <ele>205.3</ele>
        <time>2021-08-16T08:17:22Z</time>
      </trkpt>
      <trkpt lat="43.9602" lon="3.84664">
        <ele>207.9</ele>
        <time>2021-08-16T08:17:37Z</time>
      </trkpt>
      <trkpt lat="43.95954" lon="3.84528">
        <ele>211.2</ele>
        <time>2021-08-16T08:17:57Z</time>
      </trkpt>
      <trkpt lat="43.95916" lon="3.84398">
        <ele>212.9</ele>
        <time>2021-08-16T08:18:17Z</time>
      </trkpt>
      <trkpt lat="43.95894" lon="3.84272">
        <ele>215.1</ele>
        <time>2021-08-16T08:18:37Z</time>
      </trkpt>
      <trkpt lat="43.95945" lon="3.84158">
        <ele>194.5</ele>
        <time>2021-08-16T08:21:57Z</time>
      </trkpt>
      <trkpt lat="43.96032" lon="3.84098">
        <ele>185.7</ele>
        <time>2021-08-16T08:22:34Z</time>
      </trkpt>
      <trkpt lat="43.95928" lon="3.8416">
        <ele>182.8</ele>
        <time>2021-08-16T08:24:19Z</time>
      </trkpt>
      <trkpt lat="43.95875" lon="3.84045">
        <ele>188.1</ele>
        <time>2021-08-16T08:25:14Z</time>
      </trkpt>
      <trkpt lat="43.95862" lon="3.83909">
        <ele>193.9</ele>
        <time>2021-08-16T08:25:39Z</time>
      </trkpt>
      <trkpt lat="43.95847" lon="3.83778">
        <ele>198.6</ele>
        <time>2021-08-16T08:25:59Z</time>
      </trkpt>
      <trkpt lat="43.9583" lon="3.83627">
        <ele>201.8</ele>
        <time>2021-08-16T08:26:19Z</time>
      </trkpt>
      <trkpt lat="43.95822" lon="3.83488">
        <ele>199.8</ele>
        <time>2021-08-16T08:26:39Z</time>
      </trkpt>
      <trkpt lat="43.95827" lon="3.83343">
        <ele>194.1</ele>
        <time>2021-08-16T08:26:59Z</time>
      </trkpt>
      <trkpt lat="43.95852" lon="3.83207">
        <ele>187.9</ele>
        <time>2021-08-16T08:27:19Z</time>
      </trkpt>
      <trkpt lat="43.95901" lon="3.83076">
        <ele>186.6</ele>
        <time>2021-08-16T08:27:39Z</time>
      </trkpt>
      <trkpt lat="43.95904" lon="3.82951">
        <ele>189.8</ele>
        <time>2021-08-16T08:28:04Z</time>
      </trkpt>
      <trkpt lat="43.95892" lon="3.8282">
        <ele>195.8</ele>
        <time>2021-08-16T08:28:34Z</time>
      </trkpt>
      <trkpt lat="43.95867" lon="3.8269">
        <ele>207.5</ele>
        <time>2021-08-16T08:29:09Z</time>
      </trkpt>
      <trkpt lat="43.95836" lon="3.82564">
        <ele>209.7</ele>
        <time>2021-08-16T08:29:39Z</time>
      </trkpt>
      <trkpt lat="43.95807" lon="3.82444">
        <ele>209.1</ele>
        <time>2021-08-16T08:32:46Z</time>
      </trkpt>
      <trkpt lat="43.95773" lon="3.82298">
        <ele>211.6</ele>
        <time>2021-08-16T08:33:16Z</time>
      </trkpt>
      <trkpt lat="43.95739" lon="3.82164">
        <ele>218.6</ele>
        <time>2021-08-16T08:33:46Z</time>
      </trkpt>
      <trkpt lat="43.95705" lon="3.82032">
        <ele>222.1</ele>
        <time>2021-08-16T08:34:11Z</time>
      </trkpt>
      <trkpt lat="43.95671" lon="3.8189">
        <ele>220.6</ele>
        <time>2021-08-16T08:34:41Z</time>
      </trkpt>
      <trkpt lat="43.95638" lon="3.81754">
        <ele>225</ele>
        <time>2021-08-16T08:35:11Z</time>
      </trkpt>
      <trkpt lat="43.95606" lon="3.81605">
        <ele>228.7</ele>
        <time>2021-08-16T08:35:36Z</time>
      </trkpt>
      <trkpt lat="43.9558" lon="3.81475">
        <ele>229.8</ele>
        <time>2021-08-16T08:35:56Z</time>
      </trkpt>
      <trkpt lat="43.9555" lon="3.8133">
        <ele>227.8</ele>
        <time>2021-08-16T08:36:21Z</time>
      </trkpt>
      <trkpt lat="43.9552" lon="3.81196">
        <ele>231.4</ele>
        <time>2021-08-16T08:36:46Z</time>
      </trkpt>
      <trkpt lat="43.95494" lon="3.81057">
        <ele>233</ele>
        <time>2021-08-16T08:37:16Z</time>
      </trkpt>
      <trkpt lat="43.9547" lon="3.80924">
        <ele>233.7</ele>
        <time>2021-08-16T08:37:36Z</time>
      </trkpt>
      <trkpt lat="43.95436" lon="3.80798">
        <ele>230.3</ele>
        <time>2021-08-16T08:41:15Z</time>
      </trkpt>
      <trkpt lat="43.95396" lon="3.80645">
        <ele>228.6</ele>
        <time>2021-08-16T08:41:35Z</time>
      </trkpt>
      <trkpt lat="43.95358" lon="3.80484">
        <ele>224.4</ele>
        <time>2021-08-16T08:41:50Z</time>
      </trkpt>
      <trkpt lat="43.95328" lon="3.80353">
        <ele>220.9</ele>
        <time>2021-08-16T08:42:00Z</time>
      </trkpt>
      <trkpt lat="43.953" lon="3.80232">
        <ele>219.5</ele>
        <time>2021-08-16T08:42:10Z</time>
      </trkpt>
      <trkpt lat="43.95267" lon="3.80077">
        <ele>215.2</ele>
        <time>2021-08-16T08:42:25Z</time>
      </trkpt>
      <trkpt lat="43.95234" lon="3.79942">
        <ele>212.1</ele>
        <time>2021-08-16T08:42:40Z</time>
      </trkpt>
      <trkpt lat="43.95197" lon="3.79795">
        <ele>206.9</ele>
        <time>2021-08-16T08:42:55Z</time>
      </trkpt>
      <trkpt lat="43.95165" lon="3.79654">
        <ele>206.9</ele>
        <time>2021-08-16T08:43:10Z</time>
      </trkpt>
      <trkpt lat="43.95133" lon="3.79517">
        <ele>206.7</ele>
        <time>2021-08-16T08:43:25Z</time>
      </trkpt>
      <trkpt lat="43.95097" lon="3.79367">
        <ele>209.9</ele>
        <time>2021-08-16T08:43:45Z</time>
      </trkpt>
      <trkpt lat="43.95064" lon="3.79232">
        <ele>210.5</ele>
        <time>2021-08-16T08:44:05Z</time>
      </trkpt>
      <trkpt lat="43.95025" lon="3.79074">
        <ele>212.4</ele>
        <time>2021-08-16T08:44:30Z</time>
      </trkpt>
      <trkpt lat="43.95008" lon="3.78936">
        <ele>205.7</ele>
        <time>2021-08-16T08:44:45Z</time>
      </trkpt>
      <trkpt lat="43.94995" lon="3.78792">
        <ele>201</ele>
        <time>2021-08-16T08:45:00Z</time>
      </trkpt>
      <trkpt lat="43.94986" lon="3.7866">
        <ele>198.8</ele>
        <time>2021-08-16T08:45:15Z</time>
      </trkpt>
      <trkpt lat="43.94976" lon="3.7853">
        <ele>199.9</ele>
        <time>2021-08-16T08:45:30Z</time>
      </trkpt>
      <trkpt lat="43.94962" lon="3.78387">
        <ele>203.6</ele>
        <time>2021-08-16T08:45:50Z</time>
      </trkpt>
      <trkpt lat="43.94951" lon="3.78255">
        <ele>203.1</ele>
        <time>2021-08-16T08:46:10Z</time>
      </trkpt>
      <trkpt lat="43.94939" lon="3.78123">
        <ele>199.7</ele>
        <time>2021-08-16T08:46:30Z</time>
      </trkpt>
      <trkpt lat="43.94927" lon="3.7799">
        <ele>205</ele>
        <time>2021-08-16T08:46:55Z</time>
      </trkpt>
      <trkpt lat="43.94912" lon="3.77827">
        <ele>205.1</ele>
        <time>2021-08-16T08:47:20Z</time>
      </trkpt>
      <trkpt lat="43.94899" lon="3.77681">
        <ele>202.9</ele>
        <time>2021-08-16T08:47:40Z</time>
      </trkpt>
      <trkpt lat="43.94884" lon="3.77535">
        <ele>208.8</ele>
        <time>2021-08-16T08:48:10Z</time>
      </trkpt>
      <trkpt lat="43.94872" lon="3.77397">
        <ele>211.6</ele>
        <time>2021-08-16T08:48:35Z</time>
      </trkpt>
      <trkpt lat="43.9486" lon="3.77269">
        <ele>210.9</ele>
        <time>2021-08-16T08:48:55Z</time>
      </trkpt>
      <trkpt lat="43.94847" lon="3.77142">
        <ele>211.9</ele>
        <time>2021-08-16T08:49:15Z</time>
      </trkpt>
      <trkpt lat="43.94834" lon="3.76985">
        <ele>210.7</ele>
        <time>2021-08-16T08:49:35Z</time>
      </trkpt>
      <trkpt lat="43.94821" lon="3.76845">
        <ele>209.6</ele>
        <time>2021-08-16T08:49:55Z</time>
      </trkpt>
      <trkpt lat="43.94808" lon="3.767">
        <ele>205.1</ele>
        <time>2021-08-16T08:50:20Z</time>
      </trkpt>
      <trkpt lat="43.94796" lon="3.76554">
        <ele>204.7</ele>
        <time>2021-08-16T08:50:45Z</time>
      </trkpt>
      <trkpt lat="43.94782" lon="3.76414">
        <ele>212.2</ele>
        <time>2021-08-16T08:51:15Z</time>
      </trkpt>
      <trkpt lat="43.94768" lon="3.7629">
        <ele>223</ele>
        <time>2021-08-16T08:51:45Z</time>
      </trkpt>
      <trkpt lat="43.94755" lon="3.76139">
        <ele>224.4</ele>
        <time>2021-08-16T08:52:15Z</time>
      </trkpt>
      <trkpt lat="43.94701" lon="3.7603">
        <ele>226.7</ele>
        <time>2021-08-16T08:52:40Z</time>
      </trkpt>
      <trkpt lat="43.94649" lon="3.75901">
        <ele>233.1</ele>
        <time>2021-08-16T08:53:15Z</time>
      </trkpt>
      <trkpt lat="43.94633" lon="3.75749">
        <ele>227.7</ele>
        <time>2021-08-16T08:53:30Z</time>
      </trkpt>
      <trkpt lat="43.94636" lon="3.7558">
        <ele>217.8</ele>
        <time>2021-08-16T08:53:45Z</time>
      </trkpt>
      <trkpt lat="43.94637" lon="3.75411">
        <ele>204.9</ele>
        <time>2021-08-16T08:54:00Z</time>
      </trkpt>
      <trkpt lat="43.94641" lon="3.75262">
        <ele>201.1</ele>
        <time>2021-08-16T08:54:15Z</time>
      </trkpt>
      <trkpt lat="43.94644" lon="3.75129">
        <ele>198.6</ele>
        <time>2021-08-16T08:54:30Z</time>
      </trkpt>
      <trkpt lat="43.94645" lon="3.74997">
        <ele>199</ele>
        <time>2021-08-16T08:54:50Z</time>
      </trkpt>
      <trkpt lat="43.94645" lon="3.74852">
        <ele>203.1</ele>
        <time>2021-08-16T08:55:20Z</time>
      </trkpt>
      <trkpt lat="43.94646" lon="3.74708">
        <ele>203.8</ele>
        <time>2021-08-16T08:55:50Z</time>
      </trkpt>
      <trkpt lat="43.94646" lon="3.7455">
        <ele>201.1</ele>
        <time>2021-08-16T08:56:10Z</time>
      </trkpt>
      <trkpt lat="43.94649" lon="3.74391">
        <ele>201.5</ele>
        <time>2021-08-16T08:56:30Z</time>
      </trkpt>
      <trkpt lat="43.94651" lon="3.74237">
        <ele>199.3</ele>
        <time>2021-08-16T08:56:50Z</time>
      </trkpt>
      <trkpt lat="43.94631" lon="3.7411">
        <ele>195.1</ele>
        <time>2021-08-16T08:57:05Z</time>
      </trkpt>
      <trkpt lat="43.94598" lon="3.73961">
        <ele>194.4</ele>
        <time>2021-08-16T08:57:20Z</time>
      </trkpt>
      <trkpt lat="43.94559" lon="3.73779">
        <ele>193.5</ele>
        <time>2021-08-16T08:57:35Z</time>
      </trkpt>
      <trkpt lat="43.94523" lon="3.73602">
        <ele>184.7</ele>
        <time>2021-08-16T08:57:50Z</time>
      </trkpt>
      <trkpt lat="43.94487" lon="3.73435">
        <ele>178.1</ele>
        <time>2021-08-16T08:58:05Z</time>
      </trkpt>
      <trkpt lat="43.94454" lon="3.73252">
        <ele>174.1</ele>
        <time>2021-08-16T08:58:20Z</time>
      </trkpt>
      <trkpt lat="43.94423" lon="3.73119">
        <ele>168.6</ele>
        <time>2021-08-16T08:58:30Z</time>
      </trkpt>
      <trkpt lat="43.94392" lon="3.72985">
        <ele>165.8</ele>
        <time>2021-08-16T08:58:40Z</time>
      </trkpt>
      <trkpt lat="43.94359" lon="3.72823">
        <ele>168.4</ele>
        <time>2021-08-16T08:58:55Z</time>
      </trkpt>
      <trkpt lat="43.94344" lon="3.72672">
        <ele>168.5</ele>
        <time>2021-08-16T08:59:15Z</time>
      </trkpt>
      <trkpt lat="43.94355" lon="3.72532">
        <ele>166.4</ele>
        <time>2021-08-16T08:59:40Z</time>
      </trkpt>
      <trkpt lat="43.94371" lon="3.7241">
        <ele>172.3</ele>
        <time>2021-08-16T09:00:00Z</time>
      </trkpt>
      <trkpt lat="43.94391" lon="3.72258">
        <ele>169.8</ele>
        <time>2021-08-16T09:00:20Z</time>
      </trkpt>
      <trkpt lat="43.94413" lon="3.72108">
        <ele>169.2</ele>
        <time>2021-08-16T09:00:45Z</time>
      </trkpt>
      <trkpt lat="43.9443" lon="3.71981">
        <ele>176</ele>
        <time>2021-08-16T09:01:15Z</time>
      </trkpt>
      <trkpt lat="43.94435" lon="3.71845">
        <ele>178.5</ele>
        <time>2021-08-16T09:01:50Z</time>
      </trkpt>
      <trkpt lat="43.94433" lon="3.71701">
        <ele>181</ele>
        <time>2021-08-16T09:02:25Z</time>
      </trkpt>
      <trkpt lat="43.94355" lon="3.71623">
        <ele>189.9</ele>
        <time>2021-08-16T09:06:04Z</time>
      </trkpt>
      <trkpt lat="43.94332" lon="3.71459">
        <ele>187.4</ele>
        <time>2021-08-16T09:06:24Z</time>
      </trkpt>
      <trkpt lat="43.94287" lon="3.71326">
        <ele>185.8</ele>
        <time>2021-08-16T09:06:39Z</time>
      </trkpt>
      <trkpt lat="43.94174" lon="3.7133">
        <ele>182.2</ele>
        <time>2021-08-16T09:06:54Z</time>
      </trkpt>
      <trkpt lat="43.94052" lon="3.71323">
        <ele>178.1</ele>
        <time>2021-08-16T09:07:09Z</time>
      </trkpt>
      <trkpt lat="43.93966" lon="3.71382">
        <ele>173</ele>
        <time>2021-08-16T09:07:24Z</time>
      </trkpt>
      <trkpt lat="43.93861" lon="3.71392">
        <ele>169.5</ele>
        <time>2021-08-16T09:07:39Z</time>
      </trkpt>
      <trkpt lat="43.93758" lon="3.71303">
        <ele>166.6</ele>
        <time>2021-08-16T09:07:54Z</time>
      </trkpt>
      <trkpt lat="43.93693" lon="3.71199">
        <ele>164</ele>
        <time>2021-08-16T09:08:09Z</time>
      </trkpt>
      <trkpt lat="43.93634" lon="3.71081">
        <ele>154.3</ele>
        <time>2021-08-16T09:09:54Z</time>
      </trkpt>
      <trkpt lat="43.9361" lon="3.70957">
        <ele>150.8</ele>
        <time>2021-08-16T09:10:29Z</time>
      </trkpt>
      <trkpt lat="43.93553" lon="3.70855">
        <ele>148.6</ele>
        <time>2021-08-16T09:11:58Z</time>
      </trkpt>
      <trkpt lat="43.93459" lon="3.70802">
        <ele>147.5</ele>
        <time>2021-08-16T09:12:28Z</time>
      </trkpt>
      <trkpt lat="43.93385" lon="3.70704">
        <ele>141</ele>
        <time>2021-08-16T09:13:15Z</time>
      </trkpt>
      <trkpt lat="43.93392" lon="3.7085">
        <ele>148.5</ele>
        <time>2021-08-16T09:17:28Z</time>
      </trkpt>
      <trkpt lat="43.93368" lon="3.70978">
        <ele>148.3</ele>
        <time>2021-08-16T09:17:48Z</time>
      </trkpt>
      <trkpt lat="43.93281" lon="3.71055">
        <ele>148.8</ele>
        <time>2021-08-16T09:18:03Z</time>
      </trkpt>
      <trkpt lat="43.93197" lon="3.71123">
        <ele>148.9</ele>
        <time>2021-08-16T09:18:33Z</time>
      </trkpt>
      <trkpt lat="43.931" lon="3.71204">
        <ele>149.2</ele>
        <time>2021-08-16T09:18:53Z</time>
      </trkpt>
      <trkpt lat="43.93012" lon="3.71272">
        <ele>149.5</ele>
        <time>2021-08-16T09:19:13Z</time>
      </trkpt>
      <trkpt lat="43.92932" lon="3.71335">
        <ele>149.2</ele>
        <time>2021-08-16T09:19:28Z</time>
      </trkpt>
      <trkpt lat="43.92855" lon="3.71399">
        <ele>148.8</ele>
        <time>2021-08-16T09:19:43Z</time>
      </trkpt>
      <trkpt lat="43.92772" lon="3.71462">
        <ele>148.4</ele>
        <time>2021-08-16T09:19:58Z</time>
      </trkpt>
      <trkpt lat="43.92693" lon="3.7153">
        <ele>148.1</ele>
        <time>2021-08-16T09:20:13Z</time>
      </trkpt>
      <trkpt lat="43.92609" lon="3.71625">
        <ele>145.7</ele>
        <time>2021-08-16T09:20:38Z</time>
      </trkpt>
      <trkpt lat="43.92553" lon="3.71767">
        <ele>144.7</ele>
        <time>2021-08-16T09:20:58Z</time>
      </trkpt>
      <trkpt lat="43.92518" lon="3.71903">
        <ele>145.6</ele>
        <time>2021-08-16T09:21:18Z</time>
      </trkpt>
      <trkpt lat="43.92465" lon="3.72043">
        <ele>144.5</ele>
        <time>2021-08-16T09:21:33Z</time>
      </trkpt>
      <trkpt lat="43.92528" lon="3.72138">
        <ele>142.6</ele>
        <time>2021-08-16T09:22:44Z</time>
      </trkpt>
      <trkpt lat="43.92643" lon="3.72127">
        <ele>143.1</ele>
        <time>2021-08-16T09:23:04Z</time>
      </trkpt>
      <trkpt lat="43.92693" lon="3.7201">
        <ele>147.1</ele>
        <time>2021-08-16T09:28:11Z</time>
      </trkpt>
      <trkpt lat="43.92652" lon="3.72121">
        <ele>138.7</ele>
        <time>2021-08-16T09:45:46Z</time>
      </trkpt>
      <trkpt lat="43.92735" lon="3.72054">
        <ele>141.3</ele>
        <time>2021-08-16T09:46:16Z</time>
      </trkpt>
      <trkpt lat="43.9279" lon="3.71936">
        <ele>140.4</ele>
        <time>2021-08-16T09:46:46Z</time>
      </trkpt>
      <trkpt lat="43.92864" lon="3.7202">
        <ele>137.9</ele>
        <time>2021-08-16T09:47:21Z</time>
      </trkpt>
      <trkpt lat="43.92956" lon="3.71987">
        <ele>156.3</ele>
        <time>2021-08-16T09:48:17Z</time>
      </trkpt>
      <trkpt lat="43.93027" lon="3.71913">
        <ele>161.6</ele>
        <time>2021-08-16T09:48:52Z</time>
      </trkpt>
      <trkpt lat="43.93078" lon="3.7178">
        <ele>160.7</ele>
        <time>2021-08-16T09:50:03Z</time>
      </trkpt>
      <trkpt lat="43.931" lon="3.71646">
        <ele>155</ele>
        <time>2021-08-16T09:50:23Z</time>
      </trkpt>
      <trkpt lat="43.9312" lon="3.71511">
        <ele>150.9</ele>
        <time>2021-08-16T09:50:43Z</time>
      </trkpt>
      <trkpt lat="43.93125" lon="3.71369">
        <ele>147.4</ele>
        <time>2021-08-16T09:51:03Z</time>
      </trkpt>
      <trkpt lat="43.9312" lon="3.71228">
        <ele>144.6</ele>
        <time>2021-08-16T09:51:23Z</time>
      </trkpt>
      <trkpt lat="43.93196" lon="3.71127">
        <ele>148.6</ele>
        <time>2021-08-16T09:52:06Z</time>
      </trkpt>
      <trkpt lat="43.93189" lon="3.70989">
        <ele>142.9</ele>
        <time>2021-08-16T09:52:51Z</time>
      </trkpt>
      <trkpt lat="43.93126" lon="3.70892">
        <ele>140.3</ele>
        <time>2021-08-16T09:53:06Z</time>
      </trkpt>
      <trkpt lat="43.93058" lon="3.70772">
        <ele>136.4</ele>
        <time>2021-08-16T09:53:26Z</time>
      </trkpt>
      <trkpt lat="43.93036" lon="3.70642">
        <ele>144</ele>
        <time>2021-08-16T09:53:46Z</time>
      </trkpt>
      <trkpt lat="43.93041" lon="3.70514">
        <ele>145.7</ele>
        <time>2021-08-16T09:54:16Z</time>
      </trkpt>
      <trkpt lat="43.93139" lon="3.70456">
        <ele>152.5</ele>
        <time>2021-08-16T09:55:29Z</time>
      </trkpt>
      <trkpt lat="43.93097" lon="3.70327">
        <ele>141</ele>
        <time>2021-08-16T09:56:04Z</time>
      </trkpt>
      <trkpt lat="43.93083" lon="3.702">
        <ele>143.5</ele>
        <time>2021-08-16T09:56:29Z</time>
      </trkpt>
      <trkpt lat="43.93153" lon="3.70124">
        <ele>143.5</ele>
        <time>2021-08-16T09:56:44Z</time>
      </trkpt>
      <trkpt lat="43.93219" lon="3.70025">
        <ele>144.4</ele>
        <time>2021-08-16T09:57:04Z</time>
      </trkpt>
      <trkpt lat="43.93307" lon="3.69936">
        <ele>142.4</ele>
        <time>2021-08-16T09:57:24Z</time>
      </trkpt>
      <trkpt lat="43.93391" lon="3.69837">
        <ele>139.2</ele>
        <time>2021-08-16T09:57:44Z</time>
      </trkpt>
      <trkpt lat="43.93455" lon="3.69749">
        <ele>133.9</ele>
        <time>2021-08-16T09:57:59Z</time>
      </trkpt>
      <trkpt lat="43.93539" lon="3.69647">
        <ele>127.4</ele>
        <time>2021-08-16T09:58:19Z</time>
      </trkpt>
      <trkpt lat="43.93609" lon="3.69541">
        <ele>120</ele>
        <time>2021-08-16T09:58:39Z</time>
      </trkpt>
      <trkpt lat="43.93675" lon="3.6943">
        <ele>112.3</ele>
        <time>2021-08-16T09:59:04Z</time>
      </trkpt>
      <trkpt lat="43.9373" lon="3.69332">
        <ele>116</ele>
        <time>2021-08-16T09:59:29Z</time>
      </trkpt>
      <trkpt lat="43.93744" lon="3.692">
        <ele>127.4</ele>
        <time>2021-08-16T09:59:49Z</time>
      </trkpt>
      <trkpt lat="43.93762" lon="3.69065">
        <ele>133.6</ele>
        <time>2021-08-16T10:00:09Z</time>
      </trkpt>
      <trkpt lat="43.93815" lon="3.68967">
        <ele>134.2</ele>
        <time>2021-08-16T10:00:24Z</time>
      </trkpt>
      <trkpt lat="43.93902" lon="3.68892">
        <ele>135.8</ele>
        <time>2021-08-16T10:00:44Z</time>
      </trkpt>
      <trkpt lat="43.93918" lon="3.68763">
        <ele>136.9</ele>
        <time>2021-08-16T10:01:09Z</time>
      </trkpt>
      <trkpt lat="43.93923" lon="3.68612">
        <ele>136.9</ele>
        <time>2021-08-16T10:01:39Z</time>
      </trkpt>
      <trkpt lat="43.93947" lon="3.68481">
        <ele>138.1</ele>
        <time>2021-08-16T10:02:09Z</time>
      </trkpt>
      <trkpt lat="43.93982" lon="3.68361">
        <ele>144.3</ele>
        <time>2021-08-16T10:02:39Z</time>
      </trkpt>
      <trkpt lat="43.93949" lon="3.68195">
        <ele>143.4</ele>
        <time>2021-08-16T10:02:59Z</time>
      </trkpt>
      <trkpt lat="43.93906" lon="3.68059">
        <ele>144</ele>
        <time>2021-08-16T10:03:14Z</time>
      </trkpt>
      <trkpt lat="43.93852" lon="3.67936">
        <ele>143.5</ele>
        <time>2021-08-16T10:03:39Z</time>
      </trkpt>
      <trkpt lat="43.9378" lon="3.67831">
        <ele>144.2</ele>
        <time>2021-08-16T10:03:59Z</time>
      </trkpt>
      <trkpt lat="43.93774" lon="3.67704">
        <ele>146.5</ele>
        <time>2021-08-16T10:04:29Z</time>
      </trkpt>
      <trkpt lat="43.93743" lon="3.67564">
        <ele>151.1</ele>
        <time>2021-08-16T10:05:14Z</time>
      </trkpt>
      <trkpt lat="43.93697" lon="3.67428">
        <ele>161.5</ele>
        <time>2021-08-16T10:05:54Z</time>
      </trkpt>
      <trkpt lat="43.93638" lon="3.67304">
        <ele>163.1</ele>
        <time>2021-08-16T10:06:14Z</time>
      </trkpt>
      <trkpt lat="43.93548" lon="3.67205">
        <ele>165.9</ele>
        <time>2021-08-16T10:06:34Z</time>
      </trkpt>
      <trkpt lat="43.93463" lon="3.67108">
        <ele>164.4</ele>
        <time>2021-08-16T10:06:54Z</time>
      </trkpt>
      <trkpt lat="43.93386" lon="3.67003">
        <ele>159.2</ele>
        <time>2021-08-16T10:07:14Z</time>
      </trkpt>
      <trkpt lat="43.93322" lon="3.66898">
        <ele>156.4</ele>
        <time>2021-08-16T10:07:34Z</time>
      </trkpt>
      <trkpt lat="43.93238" lon="3.66825">
        <ele>154.7</ele>
        <time>2021-08-16T10:07:59Z</time>
      </trkpt>
      <trkpt lat="43.93156" lon="3.66765">
        <ele>154.9</ele>
        <time>2021-08-16T10:08:19Z</time>
      </trkpt>
      <trkpt lat="43.93059" lon="3.66694">
        <ele>158.3</ele>
        <time>2021-08-16T10:08:44Z</time>
      </trkpt>
      <trkpt lat="43.92979" lon="3.6662">
        <ele>158.2</ele>
        <time>2021-08-16T10:09:04Z</time>
      </trkpt>
      <trkpt lat="43.92875" lon="3.66608">
        <ele>173.6</ele>
        <time>2021-08-16T10:14:04Z</time>
      </trkpt>
      <trkpt lat="43.92755" lon="3.66623">
        <ele>172.2</ele>
        <time>2021-08-16T10:14:29Z</time>
      </trkpt>
      <trkpt lat="43.92651" lon="3.66606">
        <ele>169.7</ele>
        <time>2021-08-16T10:14:49Z</time>
      </trkpt>
      <trkpt lat="43.92573" lon="3.66517">
        <ele>166</ele>
        <time>2021-08-16T10:15:04Z</time>
      </trkpt>
      <trkpt lat="43.92523" lon="3.66404">
        <ele>160.8</ele>
        <time>2021-08-16T10:15:24Z</time>
      </trkpt>
      <trkpt lat="43.92447" lon="3.663">
        <ele>159.1</ele>
        <time>2021-08-16T10:15:54Z</time>
      </trkpt>
      <trkpt lat="43.92368" lon="3.66225">
        <ele>156</ele>
        <time>2021-08-16T10:16:19Z</time>
      </trkpt>
      <trkpt lat="43.92276" lon="3.66158">
        <ele>157.3</ele>
        <time>2021-08-16T10:16:44Z</time>
      </trkpt>
      <trkpt lat="43.92169" lon="3.66103">
        <ele>160.3</ele>
        <time>2021-08-16T10:17:04Z</time>
      </trkpt>
      <trkpt lat="43.92073" lon="3.66076">
        <ele>161.8</ele>
        <time>2021-08-16T10:17:29Z</time>
      </trkpt>
      <trkpt lat="43.91987" lon="3.66031">
        <ele>166.5</ele>
        <time>2021-08-16T10:17:49Z</time>
      </trkpt>
      <trkpt lat="43.91898" lon="3.65984">
        <ele>169.7</ele>
        <time>2021-08-16T10:18:09Z</time>
      </trkpt>
      <trkpt lat="43.91798" lon="3.65925">
        <ele>174.5</ele>
        <time>2021-08-16T10:18:34Z</time>
      </trkpt>
      <trkpt lat="43.91704" lon="3.6587">
        <ele>180.6</ele>
        <time>2021-08-16T10:18:59Z</time>
      </trkpt>
      <trkpt lat="43.91595" lon="3.65841">
        <ele>186.1</ele>
        <time>2021-08-16T10:19:24Z</time>
      </trkpt>
      <trkpt lat="43.91487" lon="3.65797">
        <ele>188</ele>
        <time>2021-08-16T10:19:49Z</time>
      </trkpt>
      <trkpt lat="43.91376" lon="3.65719">
        <ele>186.7</ele>
        <time>2021-08-16T10:20:09Z</time>
      </trkpt>
      <trkpt lat="43.91264" lon="3.65635">
        <ele>183.9</ele>
        <time>2021-08-16T10:20:24Z</time>
      </trkpt>
      <trkpt lat="43.91153" lon="3.65613">
        <ele>182.2</ele>
        <time>2021-08-16T10:20:39Z</time>
      </trkpt>
      <trkpt lat="43.91037" lon="3.65577">
        <ele>181.9</ele>
        <time>2021-08-16T10:21:04Z</time>
      </trkpt>
      <trkpt lat="43.90933" lon="3.6556">
        <ele>183.8</ele>
        <time>2021-08-16T10:21:24Z</time>
      </trkpt>
      <trkpt lat="43.90833" lon="3.65559">
        <ele>184.9</ele>
        <time>2021-08-16T10:21:44Z</time>
      </trkpt>
      <trkpt lat="43.90729" lon="3.65549">
        <ele>182.8</ele>
        <time>2021-08-16T10:22:04Z</time>
      </trkpt>
      <trkpt lat="43.90643" lon="3.65588">
        <ele>180.7</ele>
        <time>2021-08-16T10:22:24Z</time>
      </trkpt>
      <trkpt lat="43.90548" lon="3.65654">
        <ele>178.4</ele>
        <time>2021-08-16T10:22:49Z</time>
      </trkpt>
      <trkpt lat="43.90477" lon="3.65736">
        <ele>177.2</ele>
        <time>2021-08-16T10:23:14Z</time>
      </trkpt>
      <trkpt lat="43.90396" lon="3.65808">
        <ele>175.3</ele>
        <time>2021-08-16T10:23:44Z</time>
      </trkpt>
      <trkpt lat="43.90293" lon="3.65774">
        <ele>174.8</ele>
        <time>2021-08-16T10:24:14Z</time>
      </trkpt>
      <trkpt lat="43.90222" lon="3.65689">
        <ele>176.2</ele>
        <time>2021-08-16T10:24:39Z</time>
      </trkpt>
      <trkpt lat="43.90172" lon="3.65576">
        <ele>176.3</ele>
        <time>2021-08-16T10:25:09Z</time>
      </trkpt>
      <trkpt lat="43.90129" lon="3.65457">
        <ele>181</ele>
        <time>2021-08-16T10:25:44Z</time>
      </trkpt>
      <trkpt lat="43.90046" lon="3.654">
        <ele>192.9</ele>
        <time>2021-08-16T10:26:19Z</time>
      </trkpt>
      <trkpt lat="43.89964" lon="3.65457">
        <ele>200.3</ele>
        <time>2021-08-16T10:26:55Z</time>
      </trkpt>
      <trkpt lat="43.89879" lon="3.65513">
        <ele>206.2</ele>
        <time>2021-08-16T10:27:25Z</time>
      </trkpt>
      <trkpt lat="43.89785" lon="3.65503">
        <ele>199.4</ele>
        <time>2021-08-16T10:27:50Z</time>
      </trkpt>
      <trkpt lat="43.89711" lon="3.65381">
        <ele>189.5</ele>
        <time>2021-08-16T10:28:15Z</time>
      </trkpt>
      <trkpt lat="43.89691" lon="3.65248">
        <ele>182.7</ele>
        <time>2021-08-16T10:28:35Z</time>
      </trkpt>
      <trkpt lat="43.89688" lon="3.65118">
        <ele>183.3</ele>
        <time>2021-08-16T10:28:55Z</time>
      </trkpt>
      <trkpt lat="43.89654" lon="3.64992">
        <ele>184.9</ele>
        <time>2021-08-16T10:29:20Z</time>
      </trkpt>
      <trkpt lat="43.89575" lon="3.64909">
        <ele>187</ele>
        <time>2021-08-16T10:29:55Z</time>
      </trkpt>
      <trkpt lat="43.8951" lon="3.64818">
        <ele>188.3</ele>
        <time>2021-08-16T10:30:25Z</time>
      </trkpt>
      <trkpt lat="43.89437" lon="3.647">
        <ele>185.5</ele>
        <time>2021-08-16T10:30:55Z</time>
      </trkpt>
      <trkpt lat="43.89362" lon="3.64611">
        <ele>185.2</ele>
        <time>2021-08-16T10:31:15Z</time>
      </trkpt>
      <trkpt lat="43.89313" lon="3.64461">
        <ele>184.2</ele>
        <time>2021-08-16T10:31:35Z</time>
      </trkpt>
      <trkpt lat="43.89282" lon="3.64319">
        <ele>183.3</ele>
        <time>2021-08-16T10:31:50Z</time>
      </trkpt>
      <trkpt lat="43.89214" lon="3.64233">
        <ele>181.9</ele>
        <time>2021-08-16T10:32:15Z</time>
      </trkpt>
      <trkpt lat="43.89127" lon="3.64163">
        <ele>184.5</ele>
        <time>2021-08-16T10:32:50Z</time>
      </trkpt>
      <trkpt lat="43.89095" lon="3.64032">
        <ele>182.1</ele>
        <time>2021-08-16T10:33:15Z</time>
      </trkpt>
      <trkpt lat="43.89133" lon="3.63909">
        <ele>189.6</ele>
        <time>2021-08-16T10:33:45Z</time>
      </trkpt>
      <trkpt lat="43.89166" lon="3.63785">
        <ele>189.3</ele>
        <time>2021-08-16T10:34:15Z</time>
      </trkpt>
      <trkpt lat="43.89132" lon="3.63664">
        <ele>186.6</ele>
        <time>2021-08-16T10:34:45Z</time>
      </trkpt>
      <trkpt lat="43.89069" lon="3.63568">
        <ele>189.4</ele>
        <time>2021-08-16T10:35:20Z</time>
      </trkpt>
      <trkpt lat="43.89017" lon="3.63452">
        <ele>186.1</ele>
        <time>2021-08-16T10:35:45Z</time>
      </trkpt>
      <trkpt lat="43.88978" lon="3.63314">
        <ele>184.4</ele>
        <time>2021-08-16T10:36:10Z</time>
      </trkpt>
      <trkpt lat="43.88983" lon="3.63181">
        <ele>191.3</ele>
        <time>2021-08-16T10:36:30Z</time>
      </trkpt>
      <trkpt lat="43.89068" lon="3.63091">
        <ele>199.4</ele>
        <time>2021-08-16T10:36:50Z</time>
      </trkpt>
      <trkpt lat="43.8915" lon="3.63019">
        <ele>205.2</ele>
        <time>2021-08-16T10:37:10Z</time>
      </trkpt>
      <trkpt lat="43.89207" lon="3.62899">
        <ele>206.1</ele>
        <time>2021-08-16T10:37:35Z</time>
      </trkpt>
      <trkpt lat="43.89164" lon="3.62771">
        <ele>196.7</ele>
        <time>2021-08-16T11:47:33Z</time>
      </trkpt>
      <trkpt lat="43.8909" lon="3.62694">
        <ele>199.1</ele>
        <time>2021-08-16T11:48:08Z</time>
      </trkpt>
      <trkpt lat="43.89053" lon="3.62576">
        <ele>205.2</ele>
        <time>2021-08-16T11:48:38Z</time>
      </trkpt>
      <trkpt lat="43.88981" lon="3.62496">
        <ele>208.3</ele>
        <time>2021-08-16T11:49:08Z</time>
      </trkpt>
      <trkpt lat="43.88879" lon="3.62445">
        <ele>211.8</ele>
        <time>2021-08-16T11:49:38Z</time>
      </trkpt>
      <trkpt lat="43.88826" lon="3.62329">
        <ele>213</ele>
        <time>2021-08-16T11:50:08Z</time>
      </trkpt>
      <trkpt lat="43.88817" lon="3.62203">
        <ele>214.5</ele>
        <time>2021-08-16T11:50:33Z</time>
      </trkpt>
      <trkpt lat="43.88811" lon="3.62064">
        <ele>214.3</ele>
        <time>2021-08-16T11:51:03Z</time>
      </trkpt>
      <trkpt lat="43.88797" lon="3.61923">
        <ele>214.1</ele>
        <time>2021-08-16T11:51:43Z</time>
      </trkpt>
      <trkpt lat="43.88755" lon="3.61781">
        <ele>214</ele>
        <time>2021-08-16T11:52:13Z</time>
      </trkpt>
      <trkpt lat="43.88709" lon="3.6166">
        <ele>212.8</ele>
        <time>2021-08-16T11:52:38Z</time>
      </trkpt>
      <trkpt lat="43.88618" lon="3.61574">
        <ele>209.1</ele>
        <time>2021-08-16T11:53:03Z</time>
      </trkpt>
      <trkpt lat="43.88518" lon="3.61501">
        <ele>205.6</ele>
        <time>2021-08-16T11:53:28Z</time>
      </trkpt>
      <trkpt lat="43.88429" lon="3.61478">
        <ele>203.1</ele>
        <time>2021-08-16T11:53:43Z</time>
      </trkpt>
      <trkpt lat="43.88334" lon="3.61392">
        <ele>199.9</ele>
        <time>2021-08-16T11:53:58Z</time>
      </trkpt>
      <trkpt lat="43.88253" lon="3.613">
        <ele>196.8</ele>
        <time>2021-08-16T11:54:13Z</time>
      </trkpt>
      <trkpt lat="43.88175" lon="3.61207">
        <ele>192.2</ele>
        <time>2021-08-16T11:54:33Z</time>
      </trkpt>
      <trkpt lat="43.88095" lon="3.61116">
        <ele>187.3</ele>
        <time>2021-08-16T11:54:53Z</time>
      </trkpt>
      <trkpt lat="43.88014" lon="3.61026">
        <ele>183.6</ele>
        <time>2021-08-16T11:55:13Z</time>
      </trkpt>
      <trkpt lat="43.87931" lon="3.60959">
        <ele>180.7</ele>
        <time>2021-08-16T11:55:38Z</time>
      </trkpt>
      <trkpt lat="43.87847" lon="3.60883">
        <ele>178.7</ele>
        <time>2021-08-16T11:56:03Z</time>
      </trkpt>
      <trkpt lat="43.87761" lon="3.60821">
        <ele>196.6</ele>
        <time>2021-08-16T11:56:23Z</time>
      </trkpt>
      <trkpt lat="43.87671" lon="3.60786">
        <ele>199.8</ele>
        <time>2021-08-16T11:56:43Z</time>
      </trkpt>
      <trkpt lat="43.87578" lon="3.6074">
        <ele>201.7</ele>
        <time>2021-08-16T11:57:03Z</time>
      </trkpt>
      <trkpt lat="43.87493" lon="3.60658">
        <ele>200.6</ele>
        <time>2021-08-16T11:57:23Z</time>
      </trkpt>
      <trkpt lat="43.87429" lon="3.60546">
        <ele>199.7</ele>
        <time>2021-08-16T11:57:43Z</time>
      </trkpt>
      <trkpt lat="43.87347" lon="3.60455">
        <ele>198.2</ele>
        <time>2021-08-16T11:58:03Z</time>
      </trkpt>
      <trkpt lat="43.87249" lon="3.60388">
        <ele>204.1</ele>
        <time>2021-08-16T11:58:28Z</time>
      </trkpt>
      <trkpt lat="43.87156" lon="3.60316">
        <ele>212.3</ele>
        <time>2021-08-16T11:58:58Z</time>
      </trkpt>
      <trkpt lat="43.87055" lon="3.60244">
        <ele>216</ele>
        <time>2021-08-16T11:59:28Z</time>
      </trkpt>
      <trkpt lat="43.86967" lon="3.60178">
        <ele>213</ele>
        <time>2021-08-16T11:59:43Z</time>
      </trkpt>
      <trkpt lat="43.86896" lon="3.60073">
        <ele>208.7</ele>
        <time>2021-08-16T12:00:03Z</time>
      </trkpt>
      <trkpt lat="43.86865" lon="3.59942">
        <ele>205.3</ele>
        <time>2021-08-16T12:00:23Z</time>
      </trkpt>
      <trkpt lat="43.86836" lon="3.59812">
        <ele>200.4</ele>
        <time>2021-08-16T12:00:43Z</time>
      </trkpt>
      <trkpt lat="43.86812" lon="3.59673">
        <ele>196.2</ele>
        <time>2021-08-16T12:01:03Z</time>
      </trkpt>
      <trkpt lat="43.86785" lon="3.59522">
        <ele>195.6</ele>
        <time>2021-08-16T12:01:23Z</time>
      </trkpt>
      <trkpt lat="43.86756" lon="3.59386">
        <ele>193.5</ele>
        <time>2021-08-16T12:01:43Z</time>
      </trkpt>
      <trkpt lat="43.86723" lon="3.5925">
        <ele>190.4</ele>
        <time>2021-08-16T12:02:03Z</time>
      </trkpt>
      <trkpt lat="43.86723" lon="3.59105">
        <ele>187.4</ele>
        <time>2021-08-16T12:02:23Z</time>
      </trkpt>
      <trkpt lat="43.86708" lon="3.5896">
        <ele>182.7</ele>
        <time>2021-08-16T12:02:43Z</time>
      </trkpt>
      <trkpt lat="43.86645" lon="3.58828">
        <ele>178.8</ele>
        <time>2021-08-16T12:03:03Z</time>
      </trkpt>
      <trkpt lat="43.86588" lon="3.58724">
        <ele>177.3</ele>
        <time>2021-08-16T12:03:23Z</time>
      </trkpt>
      <trkpt lat="43.86505" lon="3.58659">
        <ele>174</ele>
        <time>2021-08-16T12:03:43Z</time>
      </trkpt>
      <trkpt lat="43.86387" lon="3.58636">
        <ele>168.2</ele>
        <time>2021-08-16T12:04:03Z</time>
      </trkpt>
      <trkpt lat="43.86287" lon="3.58616">
        <ele>164.8</ele>
        <time>2021-08-16T12:04:23Z</time>
      </trkpt>
      <trkpt lat="43.86197" lon="3.58593">
        <ele>159.5</ele>
        <time>2021-08-16T12:04:53Z</time>
      </trkpt>
      <trkpt lat="43.86103" lon="3.58557">
        <ele>152.6</ele>
        <time>2021-08-16T12:05:23Z</time>
      </trkpt>
      <trkpt lat="43.86021" lon="3.58456">
        <ele>141.2</ele>
        <time>2021-08-16T12:05:53Z</time>
      </trkpt>
      <trkpt lat="43.85971" lon="3.58327">
        <ele>132.3</ele>
        <time>2021-08-16T12:06:18Z</time>
      </trkpt>
      <trkpt lat="43.85952" lon="3.58193">
        <ele>122.4</ele>
        <time>2021-08-16T12:06:43Z</time>
      </trkpt>
      <trkpt lat="43.85946" lon="3.58054">
        <ele>116.3</ele>
        <time>2021-08-16T12:07:08Z</time>
      </trkpt>
      <trkpt lat="43.8594" lon="3.57928">
        <ele>110.2</ele>
        <time>2021-08-16T12:07:33Z</time>
      </trkpt>
      <trkpt lat="43.85901" lon="3.57785">
        <ele>101.3</ele>
        <time>2021-08-16T12:08:03Z</time>
      </trkpt>
      <trkpt lat="43.85843" lon="3.57662">
        <ele>93</ele>
        <time>2021-08-16T12:08:28Z</time>
      </trkpt>
      <trkpt lat="43.85782" lon="3.57555">
        <ele>85.4</ele>
        <time>2021-08-16T12:08:53Z</time>
      </trkpt>
      <trkpt lat="43.85712" lon="3.57445">
        <ele>77.4</ele>
        <time>2021-08-16T12:09:23Z</time>
      </trkpt>
      <trkpt lat="43.85641" lon="3.57332">
        <ele>70.3</ele>
        <time>2021-08-16T12:09:53Z</time>
      </trkpt>
      <trkpt lat="43.85576" lon="3.57212">
        <ele>58.4</ele>
        <time>2021-08-16T12:10:23Z</time>
      </trkpt>
      <trkpt lat="43.85507" lon="3.57097">
        <ele>59.9</ele>
        <time>2021-08-16T12:10:53Z</time>
      </trkpt>
      <trkpt lat="43.85432" lon="3.57014">
        <ele>84.4</ele>
        <time>2021-08-16T12:11:18Z</time>
      </trkpt>
      <trkpt lat="43.85394" lon="3.56896">
        <ele>152.1</ele>
        <time>2021-08-16T12:11:43Z</time>
      </trkpt>
      <trkpt lat="43.85393" lon="3.56746">
        <ele>191</ele>
        <time>2021-08-16T12:12:08Z</time>
      </trkpt>
      <trkpt lat="43.85422" lon="3.56618">
        <ele>240.9</ele>
        <time>2021-08-16T12:12:33Z</time>
      </trkpt>
      <trkpt lat="43.85439" lon="3.56477">
        <ele>249.4</ele>
        <time>2021-08-16T12:13:03Z</time>
      </trkpt>
      <trkpt lat="43.85389" lon="3.56367">
        <ele>247.4</ele>
        <time>2021-08-16T12:13:33Z</time>
      </trkpt>
      <trkpt lat="43.85412" lon="3.56233">
        <ele>235.2</ele>
        <time>2021-08-16T12:18:41Z</time>
      </trkpt>
      <trkpt lat="43.85491" lon="3.56141">
        <ele>234.3</ele>
        <time>2021-08-16T12:19:06Z</time>
      </trkpt>
      <trkpt lat="43.85552" lon="3.56019">
        <ele>229.8</ele>
        <time>2021-08-16T12:19:31Z</time>
      </trkpt>
      <trkpt lat="43.85594" lon="3.55892">
        <ele>225.2</ele>
        <time>2021-08-16T12:19:56Z</time>
      </trkpt>
      <trkpt lat="43.85589" lon="3.55752">
        <ele>229.8</ele>
        <time>2021-08-16T12:20:21Z</time>
      </trkpt>
      <trkpt lat="43.85546" lon="3.55626">
        <ele>226.5</ele>
        <time>2021-08-16T12:20:51Z</time>
      </trkpt>
      <trkpt lat="43.85453" lon="3.55589">
        <ele>229.8</ele>
        <time>2021-08-16T12:21:31Z</time>
      </trkpt>
      <trkpt lat="43.85353" lon="3.55595">
        <ele>237.1</ele>
        <time>2021-08-16T12:22:11Z</time>
      </trkpt>
      <trkpt lat="43.85261" lon="3.55555">
        <ele>241.8</ele>
        <time>2021-08-16T12:22:46Z</time>
      </trkpt>
      <trkpt lat="43.85166" lon="3.55498">
        <ele>255</ele>
        <time>2021-08-16T12:23:33Z</time>
      </trkpt>
      <trkpt lat="43.85095" lon="3.55403">
        <ele>265.1</ele>
        <time>2021-08-16T12:24:13Z</time>
      </trkpt>
      <trkpt lat="43.8505" lon="3.55284">
        <ele>273.3</ele>
        <time>2021-08-16T12:24:53Z</time>
      </trkpt>
      <trkpt lat="43.85059" lon="3.55154">
        <ele>269.2</ele>
        <time>2021-08-16T12:25:33Z</time>
      </trkpt>
      <trkpt lat="43.8506" lon="3.55027">
        <ele>267.8</ele>
        <time>2021-08-16T12:26:08Z</time>
      </trkpt>
      <trkpt lat="43.85057" lon="3.54902">
        <ele>272.1</ele>
        <time>2021-08-16T12:26:43Z</time>
      </trkpt>
      <trkpt lat="43.85076" lon="3.54756">
        <ele>280</ele>
        <time>2021-08-16T12:27:23Z</time>
      </trkpt>
      <trkpt lat="43.8514" lon="3.54646">
        <ele>287.8</ele>
        <time>2021-08-16T12:27:58Z</time>
      </trkpt>
      <trkpt lat="43.85162" lon="3.54515">
        <ele>292</ele>
        <time>2021-08-16T12:28:57Z</time>
      </trkpt>
      <trkpt lat="43.85118" lon="3.54389">
        <ele>293.8</ele>
        <time>2021-08-16T12:30:02Z</time>
      </trkpt>
      <trkpt lat="43.85118" lon="3.54258">
        <ele>297</ele>
        <time>2021-08-16T12:31:02Z</time>
      </trkpt>
      <trkpt lat="43.85047" lon="3.54163">
        <ele>298.4</ele>
        <time>2021-08-16T12:32:01Z</time>
      </trkpt>
      <trkpt lat="43.85002" lon="3.54048">
        <ele>303.4</ele>
        <time>2021-08-16T12:33:02Z</time>
      </trkpt>
      <trkpt lat="43.84953" lon="3.53932">
        <ele>309.6</ele>
        <time>2021-08-16T12:33:59Z</time>
      </trkpt>
      <trkpt lat="43.85041" lon="3.539">
        <ele>337.4</ele>
        <time>2021-08-16T12:35:42Z</time>
      </trkpt>
      <trkpt lat="43.85119" lon="3.53987">
        <ele>357.8</ele>
        <time>2021-08-16T12:36:39Z</time>
      </trkpt>
      <trkpt lat="43.85086" lon="3.53866">
        <ele>338.6</ele>
        <time>2021-08-16T12:43:51Z</time>
      </trkpt>
      <trkpt lat="43.85034" lon="3.53752">
        <ele>339</ele>
        <time>2021-08-16T12:44:48Z</time>
      </trkpt>
      <trkpt lat="43.84968" lon="3.53658">
        <ele>341.4</ele>
        <time>2021-08-16T12:45:50Z</time>
      </trkpt>
      <trkpt lat="43.84902" lon="3.53563">
        <ele>342.9</ele>
        <time>2021-08-16T12:46:46Z</time>
      </trkpt>
      <trkpt lat="43.84826" lon="3.5348">
        <ele>343.2</ele>
        <time>2021-08-16T12:47:48Z</time>
      </trkpt>
      <trkpt lat="43.84765" lon="3.53379">
        <ele>341</ele>
        <time>2021-08-16T12:48:45Z</time>
      </trkpt>
      <trkpt lat="43.8472" lon="3.53259">
        <ele>336.9</ele>
        <time>2021-08-16T12:49:44Z</time>
      </trkpt>
      <trkpt lat="43.84772" lon="3.5338">
        <ele>391.1</ele>
        <time>2021-08-16T12:51:32Z</time>
      </trkpt>
      <trkpt lat="43.8485" lon="3.53455">
        <ele>424</ele>
        <time>2021-08-16T12:52:41Z</time>
      </trkpt>
      <trkpt lat="43.84938" lon="3.53511">
        <ele>436.6</ele>
        <time>2021-08-16T12:53:40Z</time>
      </trkpt>
      <trkpt lat="43.85019" lon="3.53593">
        <ele>443.6</ele>
        <time>2021-08-16T12:54:41Z</time>
      </trkpt>
      <trkpt lat="43.85102" lon="3.5367">
        <ele>451.2</ele>
        <time>2021-08-16T12:55:46Z</time>
      </trkpt>
      <trkpt lat="43.85038" lon="3.53577">
        <ele>450.7</ele>
        <time>2021-08-16T13:02:55Z</time>
      </trkpt>
      <trkpt lat="43.84971" lon="3.53479">
        <ele>451.4</ele>
        <time>2021-08-16T13:03:58Z</time>
      </trkpt>
      <trkpt lat="43.84894" lon="3.53398">
        <ele>456.9</ele>
        <time>2021-08-16T13:05:00Z</time>
      </trkpt>
      <trkpt lat="43.8483" lon="3.53299">
        <ele>462.7</ele>
        <time>2021-08-16T13:06:02Z</time>
      </trkpt>
      <trkpt lat="43.84787" lon="3.53177">
        <ele>468.6</ele>
        <time>2021-08-16T13:07:05Z</time>
      </trkpt>
      <trkpt lat="43.84751" lon="3.53055">
        <ele>479.9</ele>
        <time>2021-08-16T13:08:07Z</time>
      </trkpt>
      <trkpt lat="43.84808" lon="3.53156">
        <ele>508.5</ele>
        <time>2021-08-16T13:10:10Z</time>
      </trkpt>
      <trkpt lat="43.84867" lon="3.53266">
        <ele>517.2</ele>
        <time>2021-08-16T13:11:06Z</time>
      </trkpt>
      <trkpt lat="43.84962" lon="3.53249">
        <ele>523.8</ele>
        <time>2021-08-16T13:11:58Z</time>
      </trkpt>
      <trkpt lat="43.84869" lon="3.53225">
        <ele>517.9</ele>
        <time>2021-08-16T13:12:54Z</time>
      </trkpt>
      <trkpt lat="43.84829" lon="3.53101">
        <ele>516.4</ele>
        <time>2021-08-16T13:13:54Z</time>
      </trkpt>
      <trkpt lat="43.8479" lon="3.52985">
        <ele>516.6</ele>
        <time>2021-08-16T13:14:43Z</time>
      </trkpt>
      <trkpt lat="43.84708" lon="3.52924">
        <ele>527</ele>
        <time>2021-08-16T13:15:30Z</time>
      </trkpt>
      <trkpt lat="43.84769" lon="3.52831">
        <ele>535.6</ele>
        <time>2021-08-16T13:16:28Z</time>
      </trkpt>
      <trkpt lat="43.84857" lon="3.52793">
        <ele>550.1</ele>
        <time>2021-08-16T13:17:22Z</time>
      </trkpt>
      <trkpt lat="43.84943" lon="3.52726">
        <ele>556.8</ele>
        <time>2021-08-16T13:18:02Z</time>
      </trkpt>
      <trkpt lat="43.85002" lon="3.52623">
        <ele>555.2</ele>
        <time>2021-08-16T13:23:30Z</time>
      </trkpt>
      <trkpt lat="43.84931" lon="3.52522">
        <ele>553.4</ele>
        <time>2021-08-16T13:24:19Z</time>
      </trkpt>
      <trkpt lat="43.84921" lon="3.52383">
        <ele>553.7</ele>
        <time>2021-08-16T13:25:17Z</time>
      </trkpt>
      <trkpt lat="43.84839" lon="3.52324">
        <ele>556.1</ele>
        <time>2021-08-16T13:25:47Z</time>
      </trkpt>
      <trkpt lat="43.84781" lon="3.52212">
        <ele>559.7</ele>
        <time>2021-08-16T13:26:17Z</time>
      </trkpt>
      <trkpt lat="43.8479" lon="3.52088">
        <ele>566.9</ele>
        <time>2021-08-16T13:26:47Z</time>
      </trkpt>
      <trkpt lat="43.84779" lon="3.51954">
        <ele>566.2</ele>
        <time>2021-08-16T13:27:12Z</time>
      </trkpt>
      <trkpt lat="43.84686" lon="3.51862">
        <ele>566.2</ele>
        <time>2021-08-16T13:27:37Z</time>
      </trkpt>
      <trkpt lat="43.84585" lon="3.51874">
        <ele>578.5</ele>
        <time>2021-08-16T13:35:25Z</time>
      </trkpt>
      <trkpt lat="43.84489" lon="3.51803">
        <ele>573.3</ele>
        <time>2021-08-16T13:36:21Z</time>
      </trkpt>
      <trkpt lat="43.84416" lon="3.51719">
        <ele>570.5</ele>
        <time>2021-08-16T13:37:08Z</time>
      </trkpt>
      <trkpt lat="43.84335" lon="3.51621">
        <ele>566.3</ele>
        <time>2021-08-16T13:37:33Z</time>
      </trkpt>
      <trkpt lat="43.84258" lon="3.5152">
        <ele>559.3</ele>
        <time>2021-08-16T13:38:03Z</time>
      </trkpt>
      <trkpt lat="43.84268" lon="3.51394">
        <ele>564.7</ele>
        <time>2021-08-16T13:38:28Z</time>
      </trkpt>
      <trkpt lat="43.84338" lon="3.51297">
        <ele>568.9</ele>
        <time>2021-08-16T13:38:58Z</time>
      </trkpt>
      <trkpt lat="43.8439" lon="3.51198">
        <ele>570.3</ele>
        <time>2021-08-16T13:39:55Z</time>
      </trkpt>
      <trkpt lat="43.8437" lon="3.51063">
        <ele>570.5</ele>
        <time>2021-08-16T13:40:15Z</time>
      </trkpt>
      <trkpt lat="43.8435" lon="3.50918">
        <ele>571.1</ele>
        <time>2021-08-16T13:40:35Z</time>
      </trkpt>
      <trkpt lat="43.8434" lon="3.50767">
        <ele>570.7</ele>
        <time>2021-08-16T13:40:55Z</time>
      </trkpt>
      <trkpt lat="43.84346" lon="3.50628">
        <ele>566.8</ele>
        <time>2021-08-16T13:41:15Z</time>
      </trkpt>
      <trkpt lat="43.84367" lon="3.50486">
        <ele>563.3</ele>
        <time>2021-08-16T13:41:35Z</time>
      </trkpt>
      <trkpt lat="43.84376" lon="3.50358">
        <ele>564.4</ele>
        <time>2021-08-16T13:41:55Z</time>
      </trkpt>
      <trkpt lat="43.84364" lon="3.50228">
        <ele>559.6</ele>
        <time>2021-08-16T13:43:17Z</time>
      </trkpt>
      <trkpt lat="43.84347" lon="3.50076">
        <ele>561</ele>
        <time>2021-08-16T13:43:42Z</time>
      </trkpt>
      <trkpt lat="43.84336" lon="3.4994">
        <ele>559.7</ele>
        <time>2021-08-16T13:44:02Z</time>
      </trkpt>
      <trkpt lat="43.84318" lon="3.49796">
        <ele>561.2</ele>
        <time>2021-08-16T13:44:32Z</time>
      </trkpt>
      <trkpt lat="43.84314" lon="3.49655">
        <ele>560.1</ele>
        <time>2021-08-16T13:44:52Z</time>
      </trkpt>
      <trkpt lat="43.84329" lon="3.49526">
        <ele>561.8</ele>
        <time>2021-08-16T13:45:12Z</time>
      </trkpt>
      <trkpt lat="43.84306" lon="3.49402">
        <ele>560.9</ele>
        <time>2021-08-16T13:45:32Z</time>
      </trkpt>
      <trkpt lat="43.84278" lon="3.49255">
        <ele>564.7</ele>
        <time>2021-08-16T13:46:02Z</time>
      </trkpt>
      <trkpt lat="43.84269" lon="3.49108">
        <ele>564.1</ele>
        <time>2021-08-16T13:46:32Z</time>
      </trkpt>
      <trkpt lat="43.84275" lon="3.48968">
        <ele>561.5</ele>
        <time>2021-08-16T13:47:02Z</time>
      </trkpt>
      <trkpt lat="43.84283" lon="3.48836">
        <ele>557.9</ele>
        <time>2021-08-16T13:47:32Z</time>
      </trkpt>
      <trkpt lat="43.84292" lon="3.487">
        <ele>571.2</ele>
        <time>2021-08-16T13:48:17Z</time>
      </trkpt>
      <trkpt lat="43.84306" lon="3.48577">
        <ele>585.4</ele>
        <time>2021-08-16T13:49:15Z</time>
      </trkpt>
      <trkpt lat="43.8426" lon="3.48461">
        <ele>595.8</ele>
        <time>2021-08-16T13:50:26Z</time>
      </trkpt>
      <trkpt lat="43.84178" lon="3.48387">
        <ele>600.6</ele>
        <time>2021-08-16T13:51:32Z</time>
      </trkpt>
      <trkpt lat="43.8409" lon="3.48333">
        <ele>606.5</ele>
        <time>2021-08-16T13:52:55Z</time>
      </trkpt>
      <trkpt lat="43.84029" lon="3.48234">
        <ele>612.5</ele>
        <time>2021-08-16T13:54:08Z</time>
      </trkpt>
      <trkpt lat="43.84016" lon="3.481">
        <ele>622.1</ele>
        <time>2021-08-16T13:55:10Z</time>
      </trkpt>
      <trkpt lat="43.84018" lon="3.47966">
        <ele>631.1</ele>
        <time>2021-08-16T13:56:12Z</time>
      </trkpt>
      <trkpt lat="43.84001" lon="3.47826">
        <ele>635.4</ele>
        <time>2021-08-16T13:56:56Z</time>
      </trkpt>
      <trkpt lat="43.8397" lon="3.47704">
        <ele>635</ele>
        <time>2021-08-16T13:57:26Z</time>
      </trkpt>
      <trkpt lat="43.8396" lon="3.47572">
        <ele>637.8</ele>
        <time>2021-08-16T13:58:07Z</time>
      </trkpt>
      <trkpt lat="43.83951" lon="3.47438">
        <ele>639.3</ele>
        <time>2021-08-16T13:58:42Z</time>
      </trkpt>
      <trkpt lat="43.83929" lon="3.47299">
        <ele>636.5</ele>
        <time>2021-08-16T13:59:17Z</time>
      </trkpt>
      <trkpt lat="43.83883" lon="3.47159">
        <ele>642.3</ele>
        <time>2021-08-16T13:59:47Z</time>
      </trkpt>
      <trkpt lat="43.83831" lon="3.47049">
        <ele>635</ele>
        <time>2021-08-16T14:00:18Z</time>
      </trkpt>
      <trkpt lat="43.83797" lon="3.46911">
        <ele>635.2</ele>
        <time>2021-08-16T14:00:58Z</time>
      </trkpt>
      <trkpt lat="43.83805" lon="3.46776">
        <ele>644.3</ele>
        <time>2021-08-16T14:01:28Z</time>
      </trkpt>
      <trkpt lat="43.83812" lon="3.46646">
        <ele>644.8</ele>
        <time>2021-08-16T14:01:53Z</time>
      </trkpt>
      <trkpt lat="43.83818" lon="3.46517">
        <ele>643.9</ele>
        <time>2021-08-16T14:02:18Z</time>
      </trkpt>
      <trkpt lat="43.83834" lon="3.46385">
        <ele>641.6</ele>
        <time>2021-08-16T14:02:43Z</time>
      </trkpt>
      <trkpt lat="43.83844" lon="3.46236">
        <ele>642.8</ele>
        <time>2021-08-16T14:03:08Z</time>
      </trkpt>
      <trkpt lat="43.83858" lon="3.46109">
        <ele>639.7</ele>
        <time>2021-08-16T14:03:38Z</time>
      </trkpt>
      <trkpt lat="43.83861" lon="3.45975">
        <ele>647.6</ele>
        <time>2021-08-16T14:04:32Z</time>
      </trkpt>
      <trkpt lat="43.83907" lon="3.4587">
        <ele>641.9</ele>
        <time>2021-08-16T14:05:24Z</time>
      </trkpt>
      <trkpt lat="43.83971" lon="3.45776">
        <ele>641</ele>
        <time>2021-08-16T14:06:06Z</time>
      </trkpt>
      <trkpt lat="43.84051" lon="3.45698">
        <ele>642.1</ele>
        <time>2021-08-16T14:06:53Z</time>
      </trkpt>
      <trkpt lat="43.84151" lon="3.45688">
        <ele>652.2</ele>
        <time>2021-08-16T14:07:46Z</time>
      </trkpt>
      <trkpt lat="43.84242" lon="3.45633">
        <ele>648.7</ele>
        <time>2021-08-16T14:08:11Z</time>
      </trkpt>
      <trkpt lat="43.8436" lon="3.45646">
        <ele>647.7</ele>
        <time>2021-08-16T14:08:31Z</time>
      </trkpt>
      <trkpt lat="43.84461" lon="3.4559">
        <ele>644.5</ele>
        <time>2021-08-16T14:08:46Z</time>
      </trkpt>
      <trkpt lat="43.84577" lon="3.45555">
        <ele>642.2</ele>
        <time>2021-08-16T14:09:06Z</time>
      </trkpt>
      <trkpt lat="43.84677" lon="3.45523">
        <ele>635.9</ele>
        <time>2021-08-16T14:09:26Z</time>
      </trkpt>
      <trkpt lat="43.84702" lon="3.45401">
        <ele>634.1</ele>
        <time>2021-08-16T14:09:46Z</time>
      </trkpt>
      <trkpt lat="43.84697" lon="3.45269">
        <ele>626.6</ele>
        <time>2021-08-16T14:10:06Z</time>
      </trkpt>
      <trkpt lat="43.84733" lon="3.45141">
        <ele>622.7</ele>
        <time>2021-08-16T14:10:36Z</time>
      </trkpt>
      <trkpt lat="43.84779" lon="3.45027">
        <ele>620</ele>
        <time>2021-08-16T14:11:06Z</time>
      </trkpt>
      <trkpt lat="43.84834" lon="3.44923">
        <ele>625.6</ele>
        <time>2021-08-16T14:11:49Z</time>
      </trkpt>
      <trkpt lat="43.84817" lon="3.44788">
        <ele>633.8</ele>
        <time>2021-08-16T14:12:52Z</time>
      </trkpt>
      <trkpt lat="43.8481" lon="3.44662">
        <ele>644.2</ele>
        <time>2021-08-16T14:13:39Z</time>
      </trkpt>
      <trkpt lat="43.84841" lon="3.44529">
        <ele>650.3</ele>
        <time>2021-08-16T14:14:33Z</time>
      </trkpt>
      <trkpt lat="43.84791" lon="3.44417">
        <ele>654</ele>
        <time>2021-08-16T14:15:28Z</time>
      </trkpt>
      <trkpt lat="43.84849" lon="3.44307">
        <ele>658.2</ele>
        <time>2021-08-16T14:16:27Z</time>
      </trkpt>
      <trkpt lat="43.84873" lon="3.44174">
        <ele>663.1</ele>
        <time>2021-08-16T14:17:26Z</time>
      </trkpt>
      <trkpt lat="43.8486" lon="3.44041">
        <ele>666</ele>
        <time>2021-08-16T14:17:56Z</time>
      </trkpt>
      <trkpt lat="43.8484" lon="3.43918">
        <ele>667.7</ele>
        <time>2021-08-16T14:18:26Z</time>
      </trkpt>
      <trkpt lat="43.84788" lon="3.43794">
        <ele>662.1</ele>
        <time>2021-08-16T14:18:56Z</time>
      </trkpt>
      <trkpt lat="43.84833" lon="3.43662">
        <ele>658.6</ele>
        <time>2021-08-16T14:19:21Z</time>
      </trkpt>
      <trkpt lat="43.84834" lon="3.43535">
        <ele>658</ele>
        <time>2021-08-16T14:19:46Z</time>
      </trkpt>
      <trkpt lat="43.84767" lon="3.43445">
        <ele>656.6</ele>
        <time>2021-08-16T14:33:34Z</time>
      </trkpt>
      <trkpt lat="43.84727" lon="3.43321">
        <ele>659</ele>
        <time>2021-08-16T14:34:04Z</time>
      </trkpt>
      <trkpt lat="43.84768" lon="3.43203">
        <ele>659.2</ele>
        <time>2021-08-16T14:34:34Z</time>
      </trkpt>
      <trkpt lat="43.84793" lon="3.4306">
        <ele>662.2</ele>
        <time>2021-08-16T14:35:04Z</time>
      </trkpt>
      <trkpt lat="43.84819" lon="3.42931">
        <ele>658.6</ele>
        <time>2021-08-16T14:35:29Z</time>
      </trkpt>
      <trkpt lat="43.84831" lon="3.42802">
        <ele>659.1</ele>
        <time>2021-08-16T14:36:04Z</time>
      </trkpt>
      <trkpt lat="43.84849" lon="3.4267">
        <ele>677.8</ele>
        <time>2021-08-16T14:36:50Z</time>
      </trkpt>
      <trkpt lat="43.84872" lon="3.42535">
        <ele>678.5</ele>
        <time>2021-08-16T14:37:25Z</time>
      </trkpt>
      <trkpt lat="43.8489" lon="3.42404">
        <ele>683</ele>
        <time>2021-08-16T14:38:00Z</time>
      </trkpt>
      <trkpt lat="43.84933" lon="3.42273">
        <ele>676.5</ele>
        <time>2021-08-16T14:38:35Z</time>
      </trkpt>
      <trkpt lat="43.84985" lon="3.42157">
        <ele>669.2</ele>
        <time>2021-08-16T14:38:55Z</time>
      </trkpt>
      <trkpt lat="43.85026" lon="3.42033">
        <ele>668.9</ele>
        <time>2021-08-16T14:39:25Z</time>
      </trkpt>
      <trkpt lat="43.85065" lon="3.41911">
        <ele>670.7</ele>
        <time>2021-08-16T14:40:05Z</time>
      </trkpt>
      <trkpt lat="43.85108" lon="3.41786">
        <ele>670.9</ele>
        <time>2021-08-16T14:40:50Z</time>
      </trkpt>
      <trkpt lat="43.85144" lon="3.41668">
        <ele>677</ele>
        <time>2021-08-16T14:41:36Z</time>
      </trkpt>
      <trkpt lat="43.85178" lon="3.41549">
        <ele>678.3</ele>
        <time>2021-08-16T14:42:16Z</time>
      </trkpt>
      <trkpt lat="43.85199" lon="3.41427">
        <ele>684.1</ele>
        <time>2021-08-16T14:42:51Z</time>
      </trkpt>
      <trkpt lat="43.85222" lon="3.41299">
        <ele>684.3</ele>
        <time>2021-08-16T14:43:31Z</time>
      </trkpt>
      <trkpt lat="43.85238" lon="3.41175">
        <ele>685.1</ele>
        <time>2021-08-16T14:44:08Z</time>
      </trkpt>
      <trkpt lat="43.85296" lon="3.41067">
        <ele>694.2</ele>
        <time>2021-08-16T14:44:56Z</time>
      </trkpt>
      <trkpt lat="43.8528" lon="3.40935">
        <ele>698.7</ele>
        <time>2021-08-16T14:45:41Z</time>
      </trkpt>
      <trkpt lat="43.85261" lon="3.40804">
        <ele>705.1</ele>
        <time>2021-08-16T14:46:16Z</time>
      </trkpt>
      <trkpt lat="43.85299" lon="3.40678">
        <ele>710.3</ele>
        <time>2021-08-16T14:46:57Z</time>
      </trkpt>
      <trkpt lat="43.85333" lon="3.40557">
        <ele>706.3</ele>
        <time>2021-08-16T14:47:43Z</time>
      </trkpt>
      <trkpt lat="43.85372" lon="3.40431">
        <ele>705.6</ele>
        <time>2021-08-16T14:48:34Z</time>
      </trkpt>
      <trkpt lat="43.85454" lon="3.40368">
        <ele>714.4</ele>
        <time>2021-08-16T14:49:29Z</time>
      </trkpt>
      <trkpt lat="43.8555" lon="3.40381">
        <ele>727.4</ele>
        <time>2021-08-16T14:50:16Z</time>
      </trkpt>
      <trkpt lat="43.85616" lon="3.40296">
        <ele>722.5</ele>
        <time>2021-08-16T14:51:07Z</time>
      </trkpt>
      <trkpt lat="43.85622" lon="3.40165">
        <ele>729.6</ele>
        <time>2021-08-16T14:51:59Z</time>
      </trkpt>
      <trkpt lat="43.85646" lon="3.4004">
        <ele>736.9</ele>
        <time>2021-08-16T14:52:44Z</time>
      </trkpt>
      <trkpt lat="43.85645" lon="3.39905">
        <ele>733.8</ele>
        <time>2021-08-16T14:53:37Z</time>
      </trkpt>
      <trkpt lat="43.85622" lon="3.39776">
        <ele>736.8</ele>
        <time>2021-08-16T14:54:12Z</time>
      </trkpt>
      <trkpt lat="43.85608" lon="3.39642">
        <ele>737.4</ele>
        <time>2021-08-16T14:54:58Z</time>
      </trkpt>
      <trkpt lat="43.85588" lon="3.39509">
        <ele>740.8</ele>
        <time>2021-08-16T14:55:43Z</time>
      </trkpt>
      <trkpt lat="43.85537" lon="3.39379">
        <ele>748.1</ele>
        <time>2021-08-16T14:56:18Z</time>
      </trkpt>
      <trkpt lat="43.85499" lon="3.39248">
        <ele>754.4</ele>
        <time>2021-08-16T14:56:53Z</time>
      </trkpt>
      <trkpt lat="43.85424" lon="3.39162">
        <ele>768.4</ele>
        <time>2021-08-16T14:57:39Z</time>
      </trkpt>
      <trkpt lat="43.85374" lon="3.39053">
        <ele>771.6</ele>
        <time>2021-08-16T14:58:24Z</time>
      </trkpt>
      <trkpt lat="43.85392" lon="3.38931">
        <ele>772.1</ele>
        <time>2021-08-16T14:59:16Z</time>
      </trkpt>
      <trkpt lat="43.85475" lon="3.38878">
        <ele>771.9</ele>
        <time>2021-08-16T14:59:56Z</time>
      </trkpt>
      <trkpt lat="43.85539" lon="3.38772">
        <ele>771.1</ele>
        <time>2021-08-16T15:00:31Z</time>
      </trkpt>
      <trkpt lat="43.85528" lon="3.38631">
        <ele>773</ele>
        <time>2021-08-16T15:01:06Z</time>
      </trkpt>
      <trkpt lat="43.85509" lon="3.38484">
        <ele>775.7</ele>
        <time>2021-08-16T15:06:22Z</time>
      </trkpt>
      <trkpt lat="43.85526" lon="3.3835">
        <ele>771.2</ele>
        <time>2021-08-16T15:06:42Z</time>
      </trkpt>
      <trkpt lat="43.85581" lon="3.38248">
        <ele>771.7</ele>
        <time>2021-08-16T15:07:02Z</time>
      </trkpt>
      <trkpt lat="43.8566" lon="3.38179">
        <ele>776</ele>
        <time>2021-08-16T15:07:45Z</time>
      </trkpt>
      <trkpt lat="43.8569" lon="3.38051">
        <ele>776.3</ele>
        <time>2021-08-16T15:08:26Z</time>
      </trkpt>
      <trkpt lat="43.85694" lon="3.37903">
        <ele>777</ele>
        <time>2021-08-16T15:09:01Z</time>
      </trkpt>
      <trkpt lat="43.85691" lon="3.37747">
        <ele>771.9</ele>
        <time>2021-08-16T15:09:21Z</time>
      </trkpt>
      <trkpt lat="43.85669" lon="3.37594">
        <ele>764.7</ele>
        <time>2021-08-16T15:09:36Z</time>
      </trkpt>
      <trkpt lat="43.85654" lon="3.37462">
        <ele>757.9</ele>
        <time>2021-08-16T15:09:51Z</time>
      </trkpt>
      <trkpt lat="43.85615" lon="3.37322">
        <ele>752.2</ele>
        <time>2021-08-16T15:10:06Z</time>
      </trkpt>
      <trkpt lat="43.85576" lon="3.37194">
        <ele>748.6</ele>
        <time>2021-08-16T15:10:21Z</time>
      </trkpt>
      <trkpt lat="43.85545" lon="3.37047">
        <ele>745.6</ele>
        <time>2021-08-16T15:10:36Z</time>
      </trkpt>
      <trkpt lat="43.85532" lon="3.3691">
        <ele>743</ele>
        <time>2021-08-16T15:10:51Z</time>
      </trkpt>
      <trkpt lat="43.85489" lon="3.36795">
        <ele>740.4</ele>
        <time>2021-08-16T15:11:06Z</time>
      </trkpt>
      <trkpt lat="43.85427" lon="3.36671">
        <ele>738.5</ele>
        <time>2021-08-16T15:11:21Z</time>
      </trkpt>
      <trkpt lat="43.85357" lon="3.36531">
        <ele>737</ele>
        <time>2021-08-16T15:11:36Z</time>
      </trkpt>
      <trkpt lat="43.85295" lon="3.36394">
        <ele>733.8</ele>
        <time>2021-08-16T15:11:51Z</time>
      </trkpt>
      <trkpt lat="43.85235" lon="3.36271">
        <ele>732</ele>
        <time>2021-08-16T15:12:11Z</time>
      </trkpt>
      <trkpt lat="43.85161" lon="3.36182">
        <ele>739.7</ele>
        <time>2021-08-16T15:12:41Z</time>
      </trkpt>
      <trkpt lat="43.85105" lon="3.36057">
        <ele>742.2</ele>
        <time>2021-08-16T15:14:02Z</time>
      </trkpt>
      <trkpt lat="43.85075" lon="3.35933">
        <ele>739.3</ele>
        <time>2021-08-16T15:14:17Z</time>
      </trkpt>
      <trkpt lat="43.85051" lon="3.35787">
        <ele>735.4</ele>
        <time>2021-08-16T15:14:32Z</time>
      </trkpt>
      <trkpt lat="43.85073" lon="3.35657">
        <ele>731.4</ele>
        <time>2021-08-16T15:14:47Z</time>
      </trkpt>
      <trkpt lat="43.85112" lon="3.3553">
        <ele>723.8</ele>
        <time>2021-08-16T15:15:02Z</time>
      </trkpt>
      <trkpt lat="43.8515" lon="3.35416">
        <ele>718.1</ele>
        <time>2021-08-16T15:15:17Z</time>
      </trkpt>
      <trkpt lat="43.85192" lon="3.35294">
        <ele>717.7</ele>
        <time>2021-08-16T15:15:32Z</time>
      </trkpt>
      <trkpt lat="43.8523" lon="3.35183">
        <ele>720.5</ele>
        <time>2021-08-16T15:15:52Z</time>
      </trkpt>
      <trkpt lat="43.85269" lon="3.35068">
        <ele>723.6</ele>
        <time>2021-08-16T15:16:27Z</time>
      </trkpt>
      <trkpt lat="43.85306" lon="3.34943">
        <ele>728.4</ele>
        <time>2021-08-16T15:17:12Z</time>
      </trkpt>
      <trkpt lat="43.85352" lon="3.34816">
        <ele>732</ele>
        <time>2021-08-16T15:17:47Z</time>
      </trkpt>
      <trkpt lat="43.85386" lon="3.3468">
        <ele>727.3</ele>
        <time>2021-08-16T15:18:17Z</time>
      </trkpt>
      <trkpt lat="43.85407" lon="3.34559">
        <ele>731.5</ele>
        <time>2021-08-16T15:18:52Z</time>
      </trkpt>
      <trkpt lat="43.85429" lon="3.34432">
        <ele>736.7</ele>
        <time>2021-08-16T15:19:32Z</time>
      </trkpt>
      <trkpt lat="43.85454" lon="3.34302">
        <ele>737</ele>
        <time>2021-08-16T15:19:52Z</time>
      </trkpt>
      <trkpt lat="43.85482" lon="3.34168">
        <ele>735.6</ele>
        <time>2021-08-16T15:20:22Z</time>
      </trkpt>
      <trkpt lat="43.85512" lon="3.34021">
        <ele>735.2</ele>
        <time>2021-08-16T15:20:52Z</time>
      </trkpt>
      <trkpt lat="43.85534" lon="3.339">
        <ele>734.3</ele>
        <time>2021-08-16T15:21:12Z</time>
      </trkpt>
      <trkpt lat="43.85562" lon="3.33769">
        <ele>733.8</ele>
        <time>2021-08-16T15:21:42Z</time>
      </trkpt>
      <trkpt lat="43.85583" lon="3.33644">
        <ele>730.9</ele>
        <time>2021-08-16T15:22:07Z</time>
      </trkpt>
      <trkpt lat="43.85609" lon="3.33509">
        <ele>729.4</ele>
        <time>2021-08-16T15:22:42Z</time>
      </trkpt>
      <trkpt lat="43.85633" lon="3.33384">
        <ele>730.9</ele>
        <time>2021-08-16T15:23:12Z</time>
      </trkpt>
      <trkpt lat="43.85661" lon="3.33249">
        <ele>731.1</ele>
        <time>2021-08-16T15:23:42Z</time>
      </trkpt>
      <trkpt lat="43.85687" lon="3.3311">
        <ele>736.2</ele>
        <time>2021-08-16T15:24:22Z</time>
      </trkpt>
      <trkpt lat="43.85716" lon="3.32993">
        <ele>736.5</ele>
        <time>2021-08-16T15:24:42Z</time>
      </trkpt>
      <trkpt lat="43.85754" lon="3.32851">
        <ele>735</ele>
        <time>2021-08-16T15:25:02Z</time>
      </trkpt>
      <trkpt lat="43.85788" lon="3.32736">
        <ele>733.6</ele>
        <time>2021-08-16T15:25:17Z</time>
      </trkpt>
      <trkpt lat="43.8582" lon="3.3261">
        <ele>731.3</ele>
        <time>2021-08-16T15:25:32Z</time>
      </trkpt>
      <trkpt lat="43.85871" lon="3.32504">
        <ele>728</ele>
        <time>2021-08-16T15:25:47Z</time>
      </trkpt>
      <trkpt lat="43.85939" lon="3.32413">
        <ele>725.6</ele>
        <time>2021-08-16T15:26:07Z</time>
      </trkpt>
      <trkpt lat="43.86026" lon="3.32308">
        <ele>726.9</ele>
        <time>2021-08-16T15:26:27Z</time>
      </trkpt>
      <trkpt lat="43.86104" lon="3.32211">
        <ele>725.3</ele>
        <time>2021-08-16T15:26:47Z</time>
      </trkpt>
      <trkpt lat="43.86165" lon="3.32103">
        <ele>726.2</ele>
        <time>2021-08-16T15:27:22Z</time>
      </trkpt>
      <trkpt lat="43.86219" lon="3.32005">
        <ele>727</ele>
        <time>2021-08-16T15:27:57Z</time>
      </trkpt>
      <trkpt lat="43.86287" lon="3.31919">
        <ele>734.4</ele>
        <time>2021-08-16T15:28:32Z</time>
      </trkpt>
      <trkpt lat="43.86368" lon="3.31835">
        <ele>739.3</ele>
        <time>2021-08-16T15:29:17Z</time>
      </trkpt>
      <trkpt lat="43.86427" lon="3.31732">
        <ele>748.1</ele>
        <time>2021-08-16T15:45:09Z</time>
      </trkpt>
    </trkseg>
  </trk>
</gpx>